<?xml version="1.0" encoding="UTF-8"?>
<gpx version="1.1" creator="2bulu-scraper" xmlns="http://www.topografix.com/GPX/1/1">
  <metadata><name>石像生林道</name><desc>source: 2bulu.com trackId=76652096; exported 2026-08-30T14:25:56.371Z</desc></metadata>
  <wpt lat="28.7713717" lon="104.61405"><ele>238</ele><name>入口
        </name></wpt>
  <wpt lat="28.7712724" lon="104.6132915"><ele>252</ele><name>可以看火车
        </name></wpt>
  <wpt lat="28.7726056" lon="104.6112141"><ele>294</ele><name>
        </name></wpt>
  <wpt lat="28.7731013" lon="104.6090872"><ele>328</ele><name>右侧直行
        </name></wpt>
  <wpt lat="28.7744158" lon="104.6054362"><ele>332</ele><name>哪吒标识，左转上山
        </name></wpt>
  <wpt lat="28.7726859" lon="104.6058505"><ele>398</ele><name>大面积蒲葵
        </name></wpt>
  <wpt lat="28.7723916" lon="104.6057994"><ele>410</ele><name>靠左走
        </name></wpt>
  <wpt lat="28.7717185" lon="104.6064511"><ele>431</ele><name>
        </name></wpt>
  <wpt lat="28.7712397" lon="104.6087052"><ele>417</ele><name>右转，到三江一览园
        </name></wpt>
  <wpt lat="28.7700204" lon="104.6062421"><ele>457</ele><name>下山方向
        </name></wpt>
  <wpt lat="28.7697635" lon="104.6068001"><ele>430</ele><name>索道
        </name></wpt>
  <wpt lat="28.7697635" lon="104.6068001"><ele>430</ele><name>右转进哪吒行宫
        </name></wpt>
  <wpt lat="28.7691055" lon="104.6070554"><ele>401</ele><name>右转
        </name></wpt>
  <wpt lat="28.7690948" lon="104.6073198"><ele>391</ele><name>左边是千佛寺，可以逛了返回
        </name></wpt>
  <wpt lat="28.7687295" lon="104.6071162"><ele>379</ele><name>右转进入第二条林道
        </name></wpt>
  <wpt lat="28.7660344" lon="104.6024718"><ele>401</ele><name>左转
        </name></wpt>
  <wpt lat="28.7649801" lon="104.601945"><ele>382</ele><name>沿着小沟下山
        </name></wpt>
  <wpt lat="28.7642709" lon="104.602025"><ele>386</ele><name>出口右转
        </name></wpt>
  <wpt lat="28.7661269" lon="104.600662"><ele>370</ele><name>靠左，标牌下方进入石像生林道
        </name></wpt>
  <wpt lat="28.7666104" lon="104.6012734"><ele>359</ele><name>石像生
        </name></wpt>
  <wpt lat="28.7677329" lon="104.6005985"><ele>371</ele><name>右转
        </name></wpt>
  <wpt lat="28.7692287" lon="104.6010719"><ele>349</ele><name>
        </name></wpt>
  <wpt lat="28.7742273" lon="104.6063277"><ele>336</ele><name>路灯处左转，进入翠屏印象后山林道
        </name></wpt>
  <wpt lat="28.7749768" lon="104.6061051"><ele>341</ele><name>右转上石阶
        </name></wpt>
  <wpt lat="28.7748387" lon="104.6071947"><ele>369</ele><name>
        </name></wpt>
  <wpt lat="28.7741319" lon="104.6086367"><ele>373</ele><name>直行右边小路
        </name></wpt>
  <wpt lat="28.7739488" lon="104.6104178"><ele>361</ele><name>左转上真武山
        </name></wpt>
  <wpt lat="28.7751204" lon="104.6115674"><ele>338</ele><name> 此处可以吃十元斋饭
        </name></wpt>
  <wpt lat="28.7753656" lon="104.6125581"><ele>350</ele><name>真武山古建筑群
        </name></wpt>
  <wpt lat="28.7743154" lon="104.6126762"><ele>339</ele><name>左转进入林道
        </name></wpt>
  <wpt lat="28.7726852" lon="104.6120042"><ele>343</ele><name>左转
        </name></wpt>
  <trk><name>石像生林道</name>
      <trkseg>
        <trkpt lat="28.7713717" lon="104.61405"><ele>237.5</ele><time>2025-12-23T22:45:26.000Z</time></trkpt>
        <trkpt lat="28.7712767" lon="104.6140483"><ele>237.5</ele><time>2025-12-23T22:45:59.000Z</time></trkpt>
        <trkpt lat="28.771255" lon="104.613955"><ele>238.66</ele><time>2025-12-23T22:46:13.000Z</time></trkpt>
        <trkpt lat="28.771173" lon="104.6139162"><ele>238.33</ele><time>2025-12-23T22:46:25.000Z</time></trkpt>
        <trkpt lat="28.7711352" lon="104.6138325"><ele>238.58</ele><time>2025-12-23T22:46:33.000Z</time></trkpt>
        <trkpt lat="28.7711779" lon="104.6137335"><ele>239.88</ele><time>2025-12-23T22:46:43.000Z</time></trkpt>
        <trkpt lat="28.7712424" lon="104.6136359"><ele>242.17</ele><time>2025-12-23T22:46:49.000Z</time></trkpt>
        <trkpt lat="28.7713447" lon="104.6136095"><ele>242.7</ele><time>2025-12-23T22:47:01.000Z</time></trkpt>
        <trkpt lat="28.7714466" lon="104.6135864"><ele>245.15</ele><time>2025-12-23T22:47:07.000Z</time></trkpt>
        <trkpt lat="28.7714016" lon="104.6135736"><ele>247.97</ele><time>2025-12-23T22:47:25.000Z</time></trkpt>
        <trkpt lat="28.7713106" lon="104.6135964"><ele>250.69</ele><time>2025-12-23T22:47:31.000Z</time></trkpt>
        <trkpt lat="28.771251" lon="104.6135141"><ele>251.47</ele><time>2025-12-23T22:47:39.000Z</time></trkpt>
        <trkpt lat="28.7713143" lon="104.6134921"><ele>251.01</ele><time>2025-12-23T22:47:47.000Z</time></trkpt>
        <trkpt lat="28.7714203" lon="104.6134675"><ele>249.93</ele><time>2025-12-23T22:47:53.000Z</time></trkpt>
        <trkpt lat="28.7715234" lon="104.6134272"><ele>249.66</ele><time>2025-12-23T22:48:01.000Z</time></trkpt>
        <trkpt lat="28.7715361" lon="104.6133407"><ele>250.02</ele><time>2025-12-23T22:48:09.000Z</time></trkpt>
        <trkpt lat="28.7714629" lon="104.6133682"><ele>251.09</ele><time>2025-12-23T22:48:17.000Z</time></trkpt>
        <trkpt lat="28.7713594" lon="104.6134138"><ele>252.04</ele><time>2025-12-23T22:48:25.000Z</time></trkpt>
        <trkpt lat="28.7712664" lon="104.6133876"><ele>252.67</ele><time>2025-12-23T22:48:31.000Z</time></trkpt>
        <trkpt lat="28.7712724" lon="104.6132915"><ele>253.24</ele><time>2025-12-23T22:48:39.000Z</time></trkpt>
        <trkpt lat="28.7713207" lon="104.613222"><ele>252.84</ele><time>2025-12-23T22:48:51.000Z</time></trkpt>
        <trkpt lat="28.7713086" lon="104.6131171"><ele>252.82</ele><time>2025-12-23T22:49:03.000Z</time></trkpt>
        <trkpt lat="28.7713175" lon="104.6129841"><ele>253.8</ele><time>2025-12-23T22:49:11.000Z</time></trkpt>
        <trkpt lat="28.77134" lon="104.6128623"><ele>254.19</ele><time>2025-12-23T22:49:17.000Z</time></trkpt>
        <trkpt lat="28.771363" lon="104.6127511"><ele>253.98</ele><time>2025-12-23T22:49:25.000Z</time></trkpt>
        <trkpt lat="28.771405" lon="104.612651"><ele>253.51</ele><time>2025-12-23T22:49:31.000Z</time></trkpt>
        <trkpt lat="28.7714986" lon="104.6125599"><ele>253.42</ele><time>2025-12-23T22:49:39.000Z</time></trkpt>
        <trkpt lat="28.771597" lon="104.6125115"><ele>254.66</ele><time>2025-12-23T22:49:43.000Z</time></trkpt>
        <trkpt lat="28.7715634" lon="104.6124766"><ele>255.97</ele><time>2025-12-23T22:49:53.000Z</time></trkpt>
        <trkpt lat="28.771452" lon="104.612514"><ele>256.93</ele><time>2025-12-23T22:50:01.000Z</time></trkpt>
        <trkpt lat="28.7714696" lon="104.6125016"><ele>258.25</ele><time>2025-12-23T22:50:21.000Z</time></trkpt>
        <trkpt lat="28.7715495" lon="104.6124397"><ele>261.93</ele><time>2025-12-23T22:50:31.000Z</time></trkpt>
        <trkpt lat="28.7716502" lon="104.6123822"><ele>264.2</ele><time>2025-12-23T22:50:39.000Z</time></trkpt>
        <trkpt lat="28.7717473" lon="104.6123166"><ele>266.39</ele><time>2025-12-23T22:50:47.000Z</time></trkpt>
        <trkpt lat="28.7718392" lon="104.6122704"><ele>268.07</ele><time>2025-12-23T22:50:53.000Z</time></trkpt>
        <trkpt lat="28.7719198" lon="104.6122173"><ele>269.81</ele><time>2025-12-23T22:50:59.000Z</time></trkpt>
        <trkpt lat="28.771997" lon="104.6121413"><ele>271.44</ele><time>2025-12-23T22:51:09.000Z</time></trkpt>
        <trkpt lat="28.7720655" lon="104.6120407"><ele>272.88</ele><time>2025-12-23T22:51:19.000Z</time></trkpt>
        <trkpt lat="28.7721426" lon="104.6119675"><ele>274.48</ele><time>2025-12-23T22:51:27.000Z</time></trkpt>
        <trkpt lat="28.7722221" lon="104.6119089"><ele>276.3</ele><time>2025-12-23T22:51:33.000Z</time></trkpt>
        <trkpt lat="28.7722736" lon="104.6118163"><ele>277.8</ele><time>2025-12-23T22:51:41.000Z</time></trkpt>
        <trkpt lat="28.7723134" lon="104.6117153"><ele>278.96</ele><time>2025-12-23T22:51:47.000Z</time></trkpt>
        <trkpt lat="28.7723517" lon="104.6115976"><ele>279.97</ele><time>2025-12-23T22:51:53.000Z</time></trkpt>
        <trkpt lat="28.772397" lon="104.6114937"><ele>280.71</ele><time>2025-12-23T22:52:03.000Z</time></trkpt>
        <trkpt lat="28.772472" lon="104.6114364"><ele>283.29</ele><time>2025-12-23T22:52:11.000Z</time></trkpt>
        <trkpt lat="28.7725604" lon="104.6113975"><ele>287.42</ele><time>2025-12-23T22:52:23.000Z</time></trkpt>
        <trkpt lat="28.7726434" lon="104.611344"><ele>290.85</ele><time>2025-12-23T22:52:31.000Z</time></trkpt>
        <trkpt lat="28.7726902" lon="104.6112415"><ele>294.01</ele><time>2025-12-23T22:52:41.000Z</time></trkpt>
        <trkpt lat="28.7726244" lon="104.611187"><ele>296.46</ele><time>2025-12-23T22:52:51.000Z</time></trkpt>
        <trkpt lat="28.7725516" lon="104.6112414"><ele>298.24</ele><time>2025-12-23T22:53:03.000Z</time></trkpt>
        <trkpt lat="28.7725848" lon="104.6113079"><ele>298.83</ele><time>2025-12-23T22:53:11.000Z</time></trkpt>
        <trkpt lat="28.7726534" lon="104.6112821"><ele>298.51</ele><time>2025-12-23T22:53:19.000Z</time></trkpt>
        <trkpt lat="28.7726624" lon="104.611182"><ele>297.73</ele><time>2025-12-23T22:53:31.000Z</time></trkpt>
        <trkpt lat="28.7726056" lon="104.6112141"><ele>297.25</ele><time>2025-12-23T22:53:43.000Z</time></trkpt>
        <trkpt lat="28.7726464" lon="104.6112663"><ele>295.94</ele><time>2025-12-23T22:54:03.000Z</time></trkpt>
        <trkpt lat="28.7727144" lon="104.6112251"><ele>293.98</ele><time>2025-12-23T22:54:33.000Z</time></trkpt>
        <trkpt lat="28.7728156" lon="104.6111539"><ele>295.24</ele><time>2025-12-23T22:54:41.000Z</time></trkpt>
        <trkpt lat="28.7728632" lon="104.6110438"><ele>296.25</ele><time>2025-12-23T22:54:51.000Z</time></trkpt>
        <trkpt lat="28.7729166" lon="104.6109367"><ele>294.47</ele><time>2025-12-23T22:54:59.000Z</time></trkpt>
        <trkpt lat="28.7730057" lon="104.6108458"><ele>292.46</ele><time>2025-12-23T22:55:09.000Z</time></trkpt>
        <trkpt lat="28.7731056" lon="104.6107791"><ele>294.93</ele><time>2025-12-23T22:55:17.000Z</time></trkpt>
        <trkpt lat="28.7732026" lon="104.6107589"><ele>299.22</ele><time>2025-12-23T22:55:23.000Z</time></trkpt>
        <trkpt lat="28.7733058" lon="104.6107695"><ele>303.51</ele><time>2025-12-23T22:55:31.000Z</time></trkpt>
        <trkpt lat="28.7734018" lon="104.6107906"><ele>307.94</ele><time>2025-12-23T22:55:41.000Z</time></trkpt>
        <trkpt lat="28.7733943" lon="104.6107296"><ele>313.21</ele><time>2025-12-23T22:55:51.000Z</time></trkpt>
        <trkpt lat="28.773334" lon="104.6106486"><ele>317.94</ele><time>2025-12-23T22:56:01.000Z</time></trkpt>
        <trkpt lat="28.773324" lon="104.6105236"><ele>322.14</ele><time>2025-12-23T22:56:09.000Z</time></trkpt>
        <trkpt lat="28.773248" lon="104.6104404"><ele>321.82</ele><time>2025-12-23T22:56:17.000Z</time></trkpt>
        <trkpt lat="28.7731509" lon="104.6103888"><ele>319.14</ele><time>2025-12-23T22:56:25.000Z</time></trkpt>
        <trkpt lat="28.7731287" lon="104.6102935"><ele>317.53</ele><time>2025-12-23T22:56:35.000Z</time></trkpt>
        <trkpt lat="28.7731046" lon="104.6101842"><ele>317.13</ele><time>2025-12-23T22:56:43.000Z</time></trkpt>
        <trkpt lat="28.7730698" lon="104.6100849"><ele>317.16</ele><time>2025-12-23T22:56:49.000Z</time></trkpt>
        <trkpt lat="28.7730324" lon="104.6099808"><ele>317.52</ele><time>2025-12-23T22:56:57.000Z</time></trkpt>
        <trkpt lat="28.7729965" lon="104.6098801"><ele>318.33</ele><time>2025-12-23T22:57:03.000Z</time></trkpt>
        <trkpt lat="28.7729939" lon="104.6097712"><ele>319.09</ele><time>2025-12-23T22:57:11.000Z</time></trkpt>
        <trkpt lat="28.7730009" lon="104.6096617"><ele>320.17</ele><time>2025-12-23T22:57:19.000Z</time></trkpt>
        <trkpt lat="28.7730071" lon="104.6095399"><ele>321.47</ele><time>2025-12-23T22:57:27.000Z</time></trkpt>
        <trkpt lat="28.7730291" lon="104.6094215"><ele>323.12</ele><time>2025-12-23T22:57:37.000Z</time></trkpt>
        <trkpt lat="28.7730434" lon="104.6093014"><ele>326.68</ele><time>2025-12-23T22:57:47.000Z</time></trkpt>
        <trkpt lat="28.7730676" lon="104.6091959"><ele>328.45</ele><time>2025-12-23T22:57:57.000Z</time></trkpt>
        <trkpt lat="28.7731013" lon="104.6090872"><ele>328.52</ele><time>2025-12-23T22:58:03.000Z</time></trkpt>
        <trkpt lat="28.7731554" lon="104.608993"><ele>328.25</ele><time>2025-12-23T22:58:15.000Z</time></trkpt>
        <trkpt lat="28.7732148" lon="104.6088888"><ele>326.16</ele><time>2025-12-23T22:58:25.000Z</time></trkpt>
        <trkpt lat="28.7732859" lon="104.6088126"><ele>323.68</ele><time>2025-12-23T22:58:33.000Z</time></trkpt>
        <trkpt lat="28.7733663" lon="104.6087192"><ele>321.58</ele><time>2025-12-23T22:58:41.000Z</time></trkpt>
        <trkpt lat="28.7734038" lon="104.6086018"><ele>321.59</ele><time>2025-12-23T22:58:49.000Z</time></trkpt>
        <trkpt lat="28.773452" lon="104.6085082"><ele>323.1</ele><time>2025-12-23T22:58:57.000Z</time></trkpt>
        <trkpt lat="28.7735071" lon="104.6084261"><ele>325.55</ele><time>2025-12-23T22:59:05.000Z</time></trkpt>
        <trkpt lat="28.7735638" lon="104.6083475"><ele>328.11</ele><time>2025-12-23T22:59:13.000Z</time></trkpt>
        <trkpt lat="28.7736322" lon="104.6082468"><ele>330.56</ele><time>2025-12-23T22:59:19.000Z</time></trkpt>
        <trkpt lat="28.7737046" lon="104.6081273"><ele>332.77</ele><time>2025-12-23T22:59:27.000Z</time></trkpt>
        <trkpt lat="28.7737653" lon="104.6080017"><ele>335.36</ele><time>2025-12-23T22:59:33.000Z</time></trkpt>
        <trkpt lat="28.773811" lon="104.607898"><ele>336.97</ele><time>2025-12-23T22:59:41.000Z</time></trkpt>
        <trkpt lat="28.7738152" lon="104.6078472"><ele>337.8</ele><time>2025-12-23T22:59:51.000Z</time></trkpt>
        <trkpt lat="28.7738554" lon="104.607755"><ele>338.79</ele><time>2025-12-23T22:59:59.000Z</time></trkpt>
        <trkpt lat="28.773909" lon="104.6076621"><ele>340.69</ele><time>2025-12-23T23:00:09.000Z</time></trkpt>
        <trkpt lat="28.7739545" lon="104.6075668"><ele>342.97</ele><time>2025-12-23T23:00:19.000Z</time></trkpt>
        <trkpt lat="28.7739935" lon="104.6074511"><ele>346.12</ele><time>2025-12-23T23:00:25.000Z</time></trkpt>
        <trkpt lat="28.7740364" lon="104.6073219"><ele>348.91</ele><time>2025-12-23T23:00:31.000Z</time></trkpt>
        <trkpt lat="28.7740747" lon="104.6072079"><ele>351.31</ele><time>2025-12-23T23:00:35.000Z</time></trkpt>
        <trkpt lat="28.7741188" lon="104.6070782"><ele>352.56</ele><time>2025-12-23T23:00:41.000Z</time></trkpt>
        <trkpt lat="28.7741552" lon="104.6069704"><ele>353.05</ele><time>2025-12-23T23:00:45.000Z</time></trkpt>
        <trkpt lat="28.7741724" lon="104.6068538"><ele>353.8</ele><time>2025-12-23T23:00:53.000Z</time></trkpt>
        <trkpt lat="28.7741791" lon="104.6067395"><ele>353.8</ele><time>2025-12-23T23:01:01.000Z</time></trkpt>
        <trkpt lat="28.7741869" lon="104.6066248"><ele>353.28</ele><time>2025-12-23T23:01:07.000Z</time></trkpt>
        <trkpt lat="28.7742114" lon="104.6065162"><ele>352.95</ele><time>2025-12-23T23:01:13.000Z</time></trkpt>
        <trkpt lat="28.7742212" lon="104.6064011"><ele>353.44</ele><time>2025-12-23T23:01:21.000Z</time></trkpt>
        <trkpt lat="28.7742114" lon="104.6062919"><ele>353.98</ele><time>2025-12-23T23:01:27.000Z</time></trkpt>
        <trkpt lat="28.7741873" lon="104.6061651"><ele>352.61</ele><time>2025-12-23T23:01:35.000Z</time></trkpt>
        <trkpt lat="28.7741919" lon="104.6060454"><ele>350.97</ele><time>2025-12-23T23:01:41.000Z</time></trkpt>
        <trkpt lat="28.7742423" lon="104.6059215"><ele>349.82</ele><time>2025-12-23T23:01:49.000Z</time></trkpt>
        <trkpt lat="28.7743012" lon="104.6058251"><ele>348.74</ele><time>2025-12-23T23:01:55.000Z</time></trkpt>
        <trkpt lat="28.7743677" lon="104.6057464"><ele>345.75</ele><time>2025-12-23T23:02:05.000Z</time></trkpt>
        <trkpt lat="28.7744275" lon="104.6056541"><ele>341.21</ele><time>2025-12-23T23:02:19.000Z</time></trkpt>
        <trkpt lat="28.7744457" lon="104.6055388"><ele>336.05</ele><time>2025-12-23T23:02:49.000Z</time></trkpt>
        <trkpt lat="28.7744158" lon="104.6054362"><ele>334.22</ele><time>2025-12-23T23:02:59.000Z</time></trkpt>
        <trkpt lat="28.7743942" lon="104.6053245"><ele>333.44</ele><time>2025-12-23T23:03:41.000Z</time></trkpt>
        <trkpt lat="28.7743255" lon="104.6053458"><ele>334.37</ele><time>2025-12-23T23:03:55.000Z</time></trkpt>
        <trkpt lat="28.7742598" lon="104.6054287"><ele>335.54</ele><time>2025-12-23T23:04:05.000Z</time></trkpt>
        <trkpt lat="28.7741737" lon="104.6054858"><ele>338.19</ele><time>2025-12-23T23:04:21.000Z</time></trkpt>
        <trkpt lat="28.7740641" lon="104.60552"><ele>340.86</ele><time>2025-12-23T23:04:47.000Z</time></trkpt>
        <trkpt lat="28.7739593" lon="104.6055185"><ele>342.21</ele><time>2025-12-23T23:04:59.000Z</time></trkpt>
        <trkpt lat="28.773876" lon="104.605564"><ele>341.69</ele><time>2025-12-23T23:05:11.000Z</time></trkpt>
        <trkpt lat="28.7737853" lon="104.6055786"><ele>342.34</ele><time>2025-12-23T23:05:25.000Z</time></trkpt>
        <trkpt lat="28.7736976" lon="104.6056117"><ele>347.4</ele><time>2025-12-23T23:05:47.000Z</time></trkpt>
        <trkpt lat="28.7736071" lon="104.6056186"><ele>352.73</ele><time>2025-12-23T23:05:57.000Z</time></trkpt>
        <trkpt lat="28.7735319" lon="104.6056504"><ele>357.02</ele><time>2025-12-23T23:06:07.000Z</time></trkpt>
        <trkpt lat="28.7734472" lon="104.6056437"><ele>362.35</ele><time>2025-12-23T23:06:39.000Z</time></trkpt>
        <trkpt lat="28.7733797" lon="104.6056985"><ele>367.1</ele><time>2025-12-23T23:06:57.000Z</time></trkpt>
        <trkpt lat="28.7732883" lon="104.6056898"><ele>369.29</ele><time>2025-12-23T23:07:09.000Z</time></trkpt>
        <trkpt lat="28.7731812" lon="104.6057093"><ele>371.23</ele><time>2025-12-23T23:07:59.000Z</time></trkpt>
        <trkpt lat="28.7730842" lon="104.60573"><ele>372.81</ele><time>2025-12-23T23:08:27.000Z</time></trkpt>
        <trkpt lat="28.7729784" lon="104.605757"><ele>374.31</ele><time>2025-12-23T23:08:41.000Z</time></trkpt>
        <trkpt lat="28.7728857" lon="104.6057986"><ele>377.83</ele><time>2025-12-23T23:08:57.000Z</time></trkpt>
        <trkpt lat="28.7727797" lon="104.6058237"><ele>381.82</ele><time>2025-12-23T23:09:07.000Z</time></trkpt>
        <trkpt lat="28.7726859" lon="104.6058505"><ele>386.72</ele><time>2025-12-23T23:09:43.000Z</time></trkpt>
        <trkpt lat="28.7725833" lon="104.6058295"><ele>391.74</ele><time>2025-12-23T23:10:25.000Z</time></trkpt>
        <trkpt lat="28.7724821" lon="104.6057922"><ele>396.37</ele><time>2025-12-23T23:10:35.000Z</time></trkpt>
        <trkpt lat="28.7723916" lon="104.6057994"><ele>400.73</ele><time>2025-12-23T23:10:45.000Z</time></trkpt>
        <trkpt lat="28.7722977" lon="104.60583"><ele>404.5</ele><time>2025-12-23T23:11:09.000Z</time></trkpt>
        <trkpt lat="28.7722057" lon="104.6058868"><ele>407.68</ele><time>2025-12-23T23:11:21.000Z</time></trkpt>
        <trkpt lat="28.7721193" lon="104.6059475"><ele>410.14</ele><time>2025-12-23T23:11:29.000Z</time></trkpt>
        <trkpt lat="28.7720436" lon="104.6060234"><ele>413.01</ele><time>2025-12-23T23:11:37.000Z</time></trkpt>
        <trkpt lat="28.7719625" lon="104.6061059"><ele>415.5</ele><time>2025-12-23T23:11:47.000Z</time></trkpt>
        <trkpt lat="28.7718738" lon="104.6061478"><ele>419.03</ele><time>2025-12-23T23:11:57.000Z</time></trkpt>
        <trkpt lat="28.7718059" lon="104.6062363"><ele>422.97</ele><time>2025-12-23T23:12:09.000Z</time></trkpt>
        <trkpt lat="28.7717472" lon="104.6063383"><ele>426.12</ele><time>2025-12-23T23:12:17.000Z</time></trkpt>
        <trkpt lat="28.7717185" lon="104.6064511"><ele>427.92</ele><time>2025-12-23T23:12:25.000Z</time></trkpt>
        <trkpt lat="28.7716809" lon="104.6064472"><ele>429.03</ele><time>2025-12-23T23:12:37.000Z</time></trkpt>
        <trkpt lat="28.7716467" lon="104.6065307"><ele>429.62</ele><time>2025-12-23T23:12:49.000Z</time></trkpt>
        <trkpt lat="28.7716419" lon="104.6066343"><ele>427.68</ele><time>2025-12-23T23:12:59.000Z</time></trkpt>
        <trkpt lat="28.7716472" lon="104.6066744"><ele>424.8</ele><time>2025-12-23T23:13:03.000Z</time></trkpt>
        <trkpt lat="28.7716206" lon="104.6067757"><ele>423.34</ele><time>2025-12-23T23:13:15.000Z</time></trkpt>
        <trkpt lat="28.7716132" lon="104.6068868"><ele>421.95</ele><time>2025-12-23T23:13:25.000Z</time></trkpt>
        <trkpt lat="28.7716264" lon="104.6070105"><ele>421.5</ele><time>2025-12-23T23:13:33.000Z</time></trkpt>
        <trkpt lat="28.7716127" lon="104.6071185"><ele>421.67</ele><time>2025-12-23T23:13:41.000Z</time></trkpt>
        <trkpt lat="28.7716152" lon="104.6071516"><ele>421.64</ele><time>2025-12-23T23:13:47.000Z</time></trkpt>
        <trkpt lat="28.7716007" lon="104.6072412"><ele>420.89</ele><time>2025-12-23T23:13:57.000Z</time></trkpt>
        <trkpt lat="28.7716169" lon="104.6073593"><ele>419.17</ele><time>2025-12-23T23:14:07.000Z</time></trkpt>
        <trkpt lat="28.77161" lon="104.6074819"><ele>417.94</ele><time>2025-12-23T23:14:15.000Z</time></trkpt>
        <trkpt lat="28.7715859" lon="104.6075979"><ele>416.72</ele><time>2025-12-23T23:14:21.000Z</time></trkpt>
        <trkpt lat="28.771586" lon="104.6077139"><ele>416.45</ele><time>2025-12-23T23:14:31.000Z</time></trkpt>
        <trkpt lat="28.7715636" lon="104.6077657"><ele>416.73</ele><time>2025-12-23T23:14:35.000Z</time></trkpt>
        <trkpt lat="28.7714948" lon="104.6078201"><ele>416.98</ele><time>2025-12-23T23:14:41.000Z</time></trkpt>
        <trkpt lat="28.77145" lon="104.607909"><ele>414.84</ele><time>2025-12-23T23:14:47.000Z</time></trkpt>
        <trkpt lat="28.7714446" lon="104.6080309"><ele>412.45</ele><time>2025-12-23T23:14:55.000Z</time></trkpt>
        <trkpt lat="28.7714312" lon="104.6081651"><ele>410.75</ele><time>2025-12-23T23:15:03.000Z</time></trkpt>
        <trkpt lat="28.7714029" lon="104.6082777"><ele>410.26</ele><time>2025-12-23T23:15:09.000Z</time></trkpt>
        <trkpt lat="28.7713648" lon="104.6083767"><ele>410.92</ele><time>2025-12-23T23:15:17.000Z</time></trkpt>
        <trkpt lat="28.7713273" lon="104.6084809"><ele>412.07</ele><time>2025-12-23T23:15:25.000Z</time></trkpt>
        <trkpt lat="28.7712896" lon="104.6085992"><ele>414.28</ele><time>2025-12-23T23:15:31.000Z</time></trkpt>
        <trkpt lat="28.7712397" lon="104.6087052"><ele>415.79</ele><time>2025-12-23T23:15:37.000Z</time></trkpt>
        <trkpt lat="28.7712469" lon="104.6087284"><ele>416.44</ele><time>2025-12-23T23:15:51.000Z</time></trkpt>
        <trkpt lat="28.7712007" lon="104.6087818"><ele>417.33</ele><time>2025-12-23T23:16:09.000Z</time></trkpt>
        <trkpt lat="28.7711296" lon="104.6087269"><ele>416.41</ele><time>2025-12-23T23:16:23.000Z</time></trkpt>
        <trkpt lat="28.7710986" lon="104.6086207"><ele>417.31</ele><time>2025-12-23T23:16:31.000Z</time></trkpt>
        <trkpt lat="28.771112" lon="104.6085023"><ele>417.56</ele><time>2025-12-23T23:16:43.000Z</time></trkpt>
        <trkpt lat="28.7711066" lon="104.6083842"><ele>418.18</ele><time>2025-12-23T23:16:51.000Z</time></trkpt>
        <trkpt lat="28.7711253" lon="104.6082728"><ele>418.88</ele><time>2025-12-23T23:17:01.000Z</time></trkpt>
        <trkpt lat="28.7711308" lon="104.6081609"><ele>420.13</ele><time>2025-12-23T23:17:11.000Z</time></trkpt>
        <trkpt lat="28.771135" lon="104.6080545"><ele>421.15</ele><time>2025-12-23T23:17:19.000Z</time></trkpt>
        <trkpt lat="28.7711486" lon="104.6079481"><ele>421.82</ele><time>2025-12-23T23:17:27.000Z</time></trkpt>
        <trkpt lat="28.7711756" lon="104.6078391"><ele>422.97</ele><time>2025-12-23T23:17:39.000Z</time></trkpt>
        <trkpt lat="28.7712032" lon="104.6077178"><ele>424.92</ele><time>2025-12-23T23:17:49.000Z</time></trkpt>
        <trkpt lat="28.7712063" lon="104.6075871"><ele>426.07</ele><time>2025-12-23T23:17:57.000Z</time></trkpt>
        <trkpt lat="28.7711798" lon="104.6074763"><ele>426.99</ele><time>2025-12-23T23:18:05.000Z</time></trkpt>
        <trkpt lat="28.7711648" lon="104.6073599"><ele>428.2</ele><time>2025-12-23T23:18:11.000Z</time></trkpt>
        <trkpt lat="28.7711487" lon="104.6072358"><ele>428.97</ele><time>2025-12-23T23:18:19.000Z</time></trkpt>
        <trkpt lat="28.7711039" lon="104.6071452"><ele>429.63</ele><time>2025-12-23T23:18:39.000Z</time></trkpt>
        <trkpt lat="28.7710214" lon="104.607056"><ele>432.84</ele><time>2025-12-23T23:18:47.000Z</time></trkpt>
        <trkpt lat="28.7709495" lon="104.6069519"><ele>434.63</ele><time>2025-12-23T23:18:53.000Z</time></trkpt>
        <trkpt lat="28.7708593" lon="104.6068815"><ele>435.99</ele><time>2025-12-23T23:19:01.000Z</time></trkpt>
        <trkpt lat="28.7708023" lon="104.6068376"><ele>436.86</ele><time>2025-12-23T23:19:07.000Z</time></trkpt>
        <trkpt lat="28.7707214" lon="104.6068328"><ele>437.22</ele><time>2025-12-23T23:19:15.000Z</time></trkpt>
        <trkpt lat="28.7706332" lon="104.6068214"><ele>437.77</ele><time>2025-12-23T23:19:23.000Z</time></trkpt>
        <trkpt lat="28.7705946" lon="104.6067402"><ele>438.86</ele><time>2025-12-23T23:19:31.000Z</time></trkpt>
        <trkpt lat="28.7705485" lon="104.6066458"><ele>440.34</ele><time>2025-12-23T23:19:43.000Z</time></trkpt>
        <trkpt lat="28.7704886" lon="104.6065473"><ele>443.25</ele><time>2025-12-23T23:19:55.000Z</time></trkpt>
        <trkpt lat="28.7704117" lon="104.606487"><ele>446.5</ele><time>2025-12-23T23:20:03.000Z</time></trkpt>
        <trkpt lat="28.7703163" lon="104.6064749"><ele>449.08</ele><time>2025-12-23T23:20:11.000Z</time></trkpt>
        <trkpt lat="28.7702354" lon="104.6064289"><ele>451.11</ele><time>2025-12-23T23:20:19.000Z</time></trkpt>
        <trkpt lat="28.7701575" lon="104.6063721"><ele>452.7</ele><time>2025-12-23T23:20:29.000Z</time></trkpt>
        <trkpt lat="28.7700696" lon="104.6063404"><ele>454.07</ele><time>2025-12-23T23:20:37.000Z</time></trkpt>
        <trkpt lat="28.7700204" lon="104.6062421"><ele>455.2</ele><time>2025-12-23T23:20:43.000Z</time></trkpt>
        <trkpt lat="28.7699295" lon="104.6062148"><ele>455.89</ele><time>2025-12-23T23:20:57.000Z</time></trkpt>
        <trkpt lat="28.769859" lon="104.6062766"><ele>453.53</ele><time>2025-12-23T23:21:05.000Z</time></trkpt>
        <trkpt lat="28.7698086" lon="104.6063813"><ele>451.37</ele><time>2025-12-23T23:21:13.000Z</time></trkpt>
        <trkpt lat="28.7697413" lon="104.6064606"><ele>448.5</ele><time>2025-12-23T23:21:25.000Z</time></trkpt>
        <trkpt lat="28.7697579" lon="104.6065625"><ele>443.77</ele><time>2025-12-23T23:21:43.000Z</time></trkpt>
        <trkpt lat="28.7697716" lon="104.6066811"><ele>438.62</ele><time>2025-12-23T23:21:51.000Z</time></trkpt>
        <trkpt lat="28.7697635" lon="104.6068001"><ele>435.08</ele><time>2025-12-23T23:21:59.000Z</time></trkpt>
        <trkpt lat="28.7697025" lon="104.606832"><ele>433.07</ele><time>2025-12-23T23:22:33.000Z</time></trkpt>
        <trkpt lat="28.7696023" lon="104.6068322"><ele>425.3</ele><time>2025-12-23T23:23:03.000Z</time></trkpt>
        <trkpt lat="28.7696146" lon="104.606745"><ele>419.49</ele><time>2025-12-23T23:23:17.000Z</time></trkpt>
        <trkpt lat="28.7695327" lon="104.6065796"><ele>416.23</ele><time>2025-12-23T23:23:21.000Z</time></trkpt>
        <trkpt lat="28.7693871" lon="104.6065191"><ele>414.32</ele><time>2025-12-23T23:23:25.000Z</time></trkpt>
        <trkpt lat="28.7693565" lon="104.6064184"><ele>411.73</ele><time>2025-12-23T23:23:29.000Z</time></trkpt>
        <trkpt lat="28.769443" lon="104.606314"><ele>411.85</ele><time>2025-12-23T23:23:37.000Z</time></trkpt>
        <trkpt lat="28.7694885" lon="104.6064401"><ele>412.56</ele><time>2025-12-23T23:23:43.000Z</time></trkpt>
        <trkpt lat="28.7694932" lon="104.6066187"><ele>413.78</ele><time>2025-12-23T23:23:45.000Z</time></trkpt>
        <trkpt lat="28.7694645" lon="104.6067281"><ele>413.19</ele><time>2025-12-23T23:23:49.000Z</time></trkpt>
        <trkpt lat="28.7694485" lon="104.6068429"><ele>411.82</ele><time>2025-12-23T23:24:09.000Z</time></trkpt>
        <trkpt lat="28.7693794" lon="104.6069159"><ele>414.65</ele><time>2025-12-23T23:24:17.000Z</time></trkpt>
        <trkpt lat="28.7692853" lon="104.606949"><ele>418.28</ele><time>2025-12-23T23:24:21.000Z</time></trkpt>
        <trkpt lat="28.7691864" lon="104.606943"><ele>420.53</ele><time>2025-12-23T23:24:35.000Z</time></trkpt>
        <trkpt lat="28.7690965" lon="104.6069747"><ele>416.39</ele><time>2025-12-23T23:24:45.000Z</time></trkpt>
        <trkpt lat="28.7691055" lon="104.6070554"><ele>411.7</ele><time>2025-12-23T23:24:55.000Z</time></trkpt>
        <trkpt lat="28.769095" lon="104.607145"><ele>407.19</ele><time>2025-12-23T23:25:13.000Z</time></trkpt>
        <trkpt lat="28.7690971" lon="104.6072653"><ele>401.81</ele><time>2025-12-23T23:25:21.000Z</time></trkpt>
        <trkpt lat="28.7690948" lon="104.6073198"><ele>397.38</ele><time>2025-12-23T23:25:23.000Z</time></trkpt>
        <trkpt lat="28.7690153" lon="104.6072999"><ele>394.46</ele><time>2025-12-23T23:26:02.000Z</time></trkpt>
        <trkpt lat="28.7689334" lon="104.6072337"><ele>389.88</ele><time>2025-12-23T23:26:08.000Z</time></trkpt>
        <trkpt lat="28.7688256" lon="104.6071684"><ele>386.4</ele><time>2025-12-23T23:26:16.000Z</time></trkpt>
        <trkpt lat="28.7687295" lon="104.6071162"><ele>383.61</ele><time>2025-12-23T23:26:22.000Z</time></trkpt>
        <trkpt lat="28.7686226" lon="104.6070791"><ele>381.41</ele><time>2025-12-23T23:26:34.000Z</time></trkpt>
        <trkpt lat="28.7685238" lon="104.6070495"><ele>379.81</ele><time>2025-12-23T23:26:48.000Z</time></trkpt>
        <trkpt lat="28.7684289" lon="104.6070573"><ele>378</ele><time>2025-12-23T23:26:56.000Z</time></trkpt>
        <trkpt lat="28.7683519" lon="104.6070154"><ele>376.54</ele><time>2025-12-23T23:27:02.000Z</time></trkpt>
        <trkpt lat="28.7682949" lon="104.6069205"><ele>375.79</ele><time>2025-12-23T23:27:10.000Z</time></trkpt>
        <trkpt lat="28.7682518" lon="104.606809"><ele>375.49</ele><time>2025-12-23T23:27:18.000Z</time></trkpt>
        <trkpt lat="28.7681932" lon="104.6067088"><ele>375.8</ele><time>2025-12-23T23:27:26.000Z</time></trkpt>
        <trkpt lat="28.7681161" lon="104.6066368"><ele>376.74</ele><time>2025-12-23T23:27:34.000Z</time></trkpt>
        <trkpt lat="28.7680359" lon="104.6065737"><ele>378.32</ele><time>2025-12-23T23:27:42.000Z</time></trkpt>
        <trkpt lat="28.7679731" lon="104.6064901"><ele>380.42</ele><time>2025-12-23T23:27:50.000Z</time></trkpt>
        <trkpt lat="28.7679475" lon="104.6063892"><ele>382.9</ele><time>2025-12-23T23:27:58.000Z</time></trkpt>
        <trkpt lat="28.7679061" lon="104.6062988"><ele>386.56</ele><time>2025-12-23T23:28:04.000Z</time></trkpt>
        <trkpt lat="28.7678602" lon="104.6062011"><ele>389.8</ele><time>2025-12-23T23:28:12.000Z</time></trkpt>
        <trkpt lat="28.7678237" lon="104.6060956"><ele>392.77</ele><time>2025-12-23T23:28:26.000Z</time></trkpt>
        <trkpt lat="28.7677769" lon="104.6059891"><ele>396.83</ele><time>2025-12-23T23:28:38.000Z</time></trkpt>
        <trkpt lat="28.7677683" lon="104.6058741"><ele>397.76</ele><time>2025-12-23T23:28:50.000Z</time></trkpt>
        <trkpt lat="28.7677478" lon="104.6057714"><ele>401.05</ele><time>2025-12-23T23:29:00.000Z</time></trkpt>
        <trkpt lat="28.7676883" lon="104.6056702"><ele>405.41</ele><time>2025-12-23T23:29:08.000Z</time></trkpt>
        <trkpt lat="28.7676231" lon="104.6055779"><ele>409.62</ele><time>2025-12-23T23:29:14.000Z</time></trkpt>
        <trkpt lat="28.7675552" lon="104.6054887"><ele>412.62</ele><time>2025-12-23T23:29:22.000Z</time></trkpt>
        <trkpt lat="28.7675215" lon="104.6053699"><ele>415.32</ele><time>2025-12-23T23:29:30.000Z</time></trkpt>
        <trkpt lat="28.7675086" lon="104.6052385"><ele>417.21</ele><time>2025-12-23T23:29:38.000Z</time></trkpt>
        <trkpt lat="28.7674681" lon="104.605129"><ele>416.64</ele><time>2025-12-23T23:29:46.000Z</time></trkpt>
        <trkpt lat="28.7674319" lon="104.6050225"><ele>417.96</ele><time>2025-12-23T23:29:54.000Z</time></trkpt>
        <trkpt lat="28.7674241" lon="104.6049393"><ele>419.57</ele><time>2025-12-23T23:30:00.000Z</time></trkpt>
        <trkpt lat="28.7674216" lon="104.6048292"><ele>421.3</ele><time>2025-12-23T23:30:08.000Z</time></trkpt>
        <trkpt lat="28.7673796" lon="104.6047239"><ele>423.19</ele><time>2025-12-23T23:30:16.000Z</time></trkpt>
        <trkpt lat="28.7673144" lon="104.6046312"><ele>424.14</ele><time>2025-12-23T23:30:22.000Z</time></trkpt>
        <trkpt lat="28.7672561" lon="104.6045256"><ele>424.77</ele><time>2025-12-23T23:30:32.000Z</time></trkpt>
        <trkpt lat="28.7672125" lon="104.6044109"><ele>424.4</ele><time>2025-12-23T23:30:40.000Z</time></trkpt>
        <trkpt lat="28.7671863" lon="104.6042957"><ele>423.71</ele><time>2025-12-23T23:30:48.000Z</time></trkpt>
        <trkpt lat="28.7671008" lon="104.6042287"><ele>422.93</ele><time>2025-12-23T23:30:56.000Z</time></trkpt>
        <trkpt lat="28.7670389" lon="104.6041358"><ele>420.08</ele><time>2025-12-23T23:31:04.000Z</time></trkpt>
        <trkpt lat="28.7669996" lon="104.6040385"><ele>416.69</ele><time>2025-12-23T23:31:10.000Z</time></trkpt>
        <trkpt lat="28.7669296" lon="104.6039711"><ele>414.07</ele><time>2025-12-23T23:31:18.000Z</time></trkpt>
        <trkpt lat="28.7668537" lon="104.6038986"><ele>412.19</ele><time>2025-12-23T23:31:26.000Z</time></trkpt>
        <trkpt lat="28.7667653" lon="104.6038404"><ele>411.94</ele><time>2025-12-23T23:31:34.000Z</time></trkpt>
        <trkpt lat="28.7667246" lon="104.6038068"><ele>412.35</ele><time>2025-12-23T23:31:36.000Z</time></trkpt>
        <trkpt lat="28.7666599" lon="104.6037574"><ele>412.5</ele><time>2025-12-23T23:31:44.000Z</time></trkpt>
        <trkpt lat="28.7666295" lon="104.6037367"><ele>412.84</ele><time>2025-12-23T23:31:50.000Z</time></trkpt>
        <trkpt lat="28.7666507" lon="104.6036624"><ele>412.4</ele><time>2025-12-23T23:32:10.000Z</time></trkpt>
        <trkpt lat="28.7667503" lon="104.6036208"><ele>410.38</ele><time>2025-12-23T23:32:16.000Z</time></trkpt>
        <trkpt lat="28.7667071" lon="104.6035631"><ele>409.18</ele><time>2025-12-23T23:32:26.000Z</time></trkpt>
        <trkpt lat="28.7666267" lon="104.6034951"><ele>407.38</ele><time>2025-12-23T23:32:32.000Z</time></trkpt>
        <trkpt lat="28.7665409" lon="104.60342"><ele>405.76</ele><time>2025-12-23T23:32:42.000Z</time></trkpt>
        <trkpt lat="28.7664627" lon="104.603347"><ele>403.93</ele><time>2025-12-23T23:32:52.000Z</time></trkpt>
        <trkpt lat="28.7663985" lon="104.6032643"><ele>403.96</ele><time>2025-12-23T23:33:12.000Z</time></trkpt>
        <trkpt lat="28.7663643" lon="104.6031633"><ele>406.81</ele><time>2025-12-23T23:33:32.000Z</time></trkpt>
        <trkpt lat="28.7663182" lon="104.6030689"><ele>410.46</ele><time>2025-12-23T23:33:56.000Z</time></trkpt>
        <trkpt lat="28.7662586" lon="104.6029783"><ele>412.29</ele><time>2025-12-23T23:34:04.000Z</time></trkpt>
        <trkpt lat="28.7662124" lon="104.6028794"><ele>412.81</ele><time>2025-12-23T23:34:12.000Z</time></trkpt>
        <trkpt lat="28.7661743" lon="104.6027649"><ele>411.9</ele><time>2025-12-23T23:34:20.000Z</time></trkpt>
        <trkpt lat="28.7661387" lon="104.6026552"><ele>409.49</ele><time>2025-12-23T23:34:28.000Z</time></trkpt>
        <trkpt lat="28.7660846" lon="104.6025622"><ele>406.61</ele><time>2025-12-23T23:34:38.000Z</time></trkpt>
        <trkpt lat="28.7660344" lon="104.6024718"><ele>404.37</ele><time>2025-12-23T23:34:48.000Z</time></trkpt>
        <trkpt lat="28.7659602" lon="104.6023853"><ele>402.88</ele><time>2025-12-23T23:35:06.000Z</time></trkpt>
        <trkpt lat="28.7658523" lon="104.6023373"><ele>403.36</ele><time>2025-12-23T23:35:12.000Z</time></trkpt>
        <trkpt lat="28.7657449" lon="104.602368"><ele>404.41</ele><time>2025-12-23T23:35:20.000Z</time></trkpt>
        <trkpt lat="28.7656539" lon="104.6024213"><ele>405.18</ele><time>2025-12-23T23:35:26.000Z</time></trkpt>
        <trkpt lat="28.765564" lon="104.6024761"><ele>404.07</ele><time>2025-12-23T23:35:32.000Z</time></trkpt>
        <trkpt lat="28.7654907" lon="104.6025572"><ele>401.16</ele><time>2025-12-23T23:35:40.000Z</time></trkpt>
        <trkpt lat="28.7654044" lon="104.6025255"><ele>397.95</ele><time>2025-12-23T23:35:50.000Z</time></trkpt>
        <trkpt lat="28.7653551" lon="104.602426"><ele>395</ele><time>2025-12-23T23:36:02.000Z</time></trkpt>
        <trkpt lat="28.7652868" lon="104.6023066"><ele>396.46</ele><time>2025-12-23T23:36:12.000Z</time></trkpt>
        <trkpt lat="28.7652009" lon="104.6022751"><ele>399.23</ele><time>2025-12-23T23:36:40.000Z</time></trkpt>
        <trkpt lat="28.7652009" lon="104.6022751"><ele>399.23</ele><time>2025-12-23T23:36:44.000Z</time></trkpt>
      </trkseg>
      <trkseg>
        <trkpt lat="28.7650367" lon="104.6022467"><ele>399.91</ele><time>2025-12-23T23:39:06.000Z</time></trkpt>
        <trkpt lat="28.7650367" lon="104.6022467"><ele>399.91</ele><time>2025-12-23T23:39:18.000Z</time></trkpt>
        <trkpt lat="28.765025" lon="104.6021383"><ele>400.46</ele><time>2025-12-23T23:39:22.000Z</time></trkpt>
        <trkpt lat="28.7650288" lon="104.6020342"><ele>401.68</ele><time>2025-12-23T23:39:52.000Z</time></trkpt>
        <trkpt lat="28.7649801" lon="104.601945"><ele>394.94</ele><time>2025-12-23T23:40:02.000Z</time></trkpt>
        <trkpt lat="28.764974" lon="104.6018379"><ele>389.42</ele><time>2025-12-23T23:40:12.000Z</time></trkpt>
        <trkpt lat="28.7649282" lon="104.6017514"><ele>384.5</ele><time>2025-12-23T23:40:48.000Z</time></trkpt>
        <trkpt lat="28.7648708" lon="104.6016716"><ele>383.47</ele><time>2025-12-23T23:41:02.000Z</time></trkpt>
        <trkpt lat="28.764885" lon="104.6018033"><ele>383.66</ele><time>2025-12-23T23:42:10.000Z</time></trkpt>
        <trkpt lat="28.7647967" lon="104.60184"><ele>384.71</ele><time>2025-12-23T23:42:26.000Z</time></trkpt>
        <trkpt lat="28.7647013" lon="104.6018513"><ele>386.3</ele><time>2025-12-23T23:42:44.000Z</time></trkpt>
        <trkpt lat="28.7646651" lon="104.6019327"><ele>387.98</ele><time>2025-12-23T23:43:02.000Z</time></trkpt>
        <trkpt lat="28.764581" lon="104.6019719"><ele>388.85</ele><time>2025-12-23T23:43:20.000Z</time></trkpt>
        <trkpt lat="28.7645054" lon="104.6019279"><ele>389.77</ele><time>2025-12-23T23:43:48.000Z</time></trkpt>
        <trkpt lat="28.7644101" lon="104.6019103"><ele>390.47</ele><time>2025-12-23T23:44:06.000Z</time></trkpt>
        <trkpt lat="28.7643276" lon="104.6019485"><ele>389.88</ele><time>2025-12-23T23:44:32.000Z</time></trkpt>
        <trkpt lat="28.7643212" lon="104.6020434"><ele>388.81</ele><time>2025-12-23T23:44:48.000Z</time></trkpt>
        <trkpt lat="28.7642709" lon="104.602025"><ele>387.86</ele><time>2025-12-23T23:45:00.000Z</time></trkpt>
        <trkpt lat="28.7641892" lon="104.6020135"><ele>386.85</ele><time>2025-12-23T23:45:18.000Z</time></trkpt>
        <trkpt lat="28.7640975" lon="104.602007"><ele>382.78</ele><time>2025-12-23T23:45:31.000Z</time></trkpt>
        <trkpt lat="28.7640301" lon="104.6019215"><ele>379.43</ele><time>2025-12-23T23:46:01.000Z</time></trkpt>
        <trkpt lat="28.7639669" lon="104.6018151"><ele>376.75</ele><time>2025-12-23T23:46:07.000Z</time></trkpt>
        <trkpt lat="28.7639448" lon="104.6016833"><ele>373.98</ele><time>2025-12-23T23:46:13.000Z</time></trkpt>
        <trkpt lat="28.7639484" lon="104.6015621"><ele>371.75</ele><time>2025-12-23T23:46:19.000Z</time></trkpt>
        <trkpt lat="28.7639414" lon="104.6014305"><ele>370.27</ele><time>2025-12-23T23:46:29.000Z</time></trkpt>
        <trkpt lat="28.763954" lon="104.6012964"><ele>369.68</ele><time>2025-12-23T23:46:39.000Z</time></trkpt>
        <trkpt lat="28.7639479" lon="104.6011862"><ele>365.56</ele><time>2025-12-23T23:46:47.000Z</time></trkpt>
        <trkpt lat="28.7639172" lon="104.6010756"><ele>362.22</ele><time>2025-12-23T23:46:55.000Z</time></trkpt>
        <trkpt lat="28.7639026" lon="104.6009702"><ele>360.88</ele><time>2025-12-23T23:47:03.000Z</time></trkpt>
        <trkpt lat="28.763868" lon="104.6008724"><ele>360.41</ele><time>2025-12-23T23:47:11.000Z</time></trkpt>
        <trkpt lat="28.7638459" lon="104.6007595"><ele>361.05</ele><time>2025-12-23T23:47:19.000Z</time></trkpt>
        <trkpt lat="28.7638369" lon="104.6006315"><ele>362.19</ele><time>2025-12-23T23:47:25.000Z</time></trkpt>
        <trkpt lat="28.76378" lon="104.6005297"><ele>363.66</ele><time>2025-12-23T23:47:33.000Z</time></trkpt>
        <trkpt lat="28.7637136" lon="104.6004512"><ele>366.52</ele><time>2025-12-23T23:47:43.000Z</time></trkpt>
        <trkpt lat="28.7636408" lon="104.6003552"><ele>369.22</ele><time>2025-12-23T23:47:51.000Z</time></trkpt>
        <trkpt lat="28.7635763" lon="104.6002574"><ele>371.06</ele><time>2025-12-23T23:47:59.000Z</time></trkpt>
        <trkpt lat="28.7635122" lon="104.6001777"><ele>372.45</ele><time>2025-12-23T23:48:05.000Z</time></trkpt>
        <trkpt lat="28.7634547" lon="104.600096"><ele>373.42</ele><time>2025-12-23T23:48:13.000Z</time></trkpt>
        <trkpt lat="28.7634036" lon="104.6000089"><ele>374.57</ele><time>2025-12-23T23:48:21.000Z</time></trkpt>
        <trkpt lat="28.7633694" lon="104.5999119"><ele>376.09</ele><time>2025-12-23T23:48:27.000Z</time></trkpt>
        <trkpt lat="28.7633672" lon="104.5998001"><ele>377.13</ele><time>2025-12-23T23:48:33.000Z</time></trkpt>
        <trkpt lat="28.7633755" lon="104.5996685"><ele>377.5</ele><time>2025-12-23T23:48:41.000Z</time></trkpt>
        <trkpt lat="28.7634203" lon="104.5995583"><ele>377.67</ele><time>2025-12-23T23:48:51.000Z</time></trkpt>
        <trkpt lat="28.7634341" lon="104.5994464"><ele>375.06</ele><time>2025-12-23T23:49:03.000Z</time></trkpt>
        <trkpt lat="28.7634172" lon="104.599341"><ele>373.19</ele><time>2025-12-23T23:49:15.000Z</time></trkpt>
        <trkpt lat="28.7633792" lon="104.5992405"><ele>373.79</ele><time>2025-12-23T23:49:25.000Z</time></trkpt>
        <trkpt lat="28.7633503" lon="104.5991364"><ele>375.65</ele><time>2025-12-23T23:49:33.000Z</time></trkpt>
        <trkpt lat="28.7633331" lon="104.5990317"><ele>377.26</ele><time>2025-12-23T23:49:41.000Z</time></trkpt>
        <trkpt lat="28.7633533" lon="104.5989155"><ele>378.74</ele><time>2025-12-23T23:49:51.000Z</time></trkpt>
        <trkpt lat="28.7634043" lon="104.5987963"><ele>380.23</ele><time>2025-12-23T23:49:59.000Z</time></trkpt>
        <trkpt lat="28.7634782" lon="104.5987118"><ele>380.56</ele><time>2025-12-23T23:50:07.000Z</time></trkpt>
        <trkpt lat="28.7635864" lon="104.598678"><ele>380.58</ele><time>2025-12-23T23:50:17.000Z</time></trkpt>
        <trkpt lat="28.7637056" lon="104.5986836"><ele>380.16</ele><time>2025-12-23T23:50:27.000Z</time></trkpt>
        <trkpt lat="28.7638142" lon="104.598735"><ele>381.47</ele><time>2025-12-23T23:50:33.000Z</time></trkpt>
        <trkpt lat="28.7639216" lon="104.5988041"><ele>382.69</ele><time>2025-12-23T23:50:43.000Z</time></trkpt>
        <trkpt lat="28.764024" lon="104.5988675"><ele>383.77</ele><time>2025-12-23T23:50:49.000Z</time></trkpt>
        <trkpt lat="28.7641043" lon="104.5989341"><ele>383.61</ele><time>2025-12-23T23:50:53.000Z</time></trkpt>
        <trkpt lat="28.764198" lon="104.5989677"><ele>381.33</ele><time>2025-12-23T23:51:11.000Z</time></trkpt>
        <trkpt lat="28.7642953" lon="104.599021"><ele>376.5</ele><time>2025-12-23T23:51:21.000Z</time></trkpt>
        <trkpt lat="28.7643675" lon="104.5990989"><ele>370.73</ele><time>2025-12-23T23:51:31.000Z</time></trkpt>
        <trkpt lat="28.7644555" lon="104.5991729"><ele>365.13</ele><time>2025-12-23T23:51:47.000Z</time></trkpt>
        <trkpt lat="28.7645279" lon="104.5992465"><ele>361.07</ele><time>2025-12-23T23:51:57.000Z</time></trkpt>
        <trkpt lat="28.7646081" lon="104.5993243"><ele>358.12</ele><time>2025-12-23T23:52:07.000Z</time></trkpt>
        <trkpt lat="28.7646457" lon="104.5993608"><ele>356.99</ele><time>2025-12-23T23:52:09.000Z</time></trkpt>
        <trkpt lat="28.7647077" lon="104.5994218"><ele>356.39</ele><time>2025-12-23T23:52:17.000Z</time></trkpt>
        <trkpt lat="28.7647709" lon="104.5994926"><ele>355.71</ele><time>2025-12-23T23:52:25.000Z</time></trkpt>
        <trkpt lat="28.764847" lon="104.5995642"><ele>354.93</ele><time>2025-12-23T23:52:33.000Z</time></trkpt>
        <trkpt lat="28.7649239" lon="104.599643"><ele>355.05</ele><time>2025-12-23T23:52:41.000Z</time></trkpt>
        <trkpt lat="28.7650029" lon="104.5997328"><ele>354.85</ele><time>2025-12-23T23:52:53.000Z</time></trkpt>
        <trkpt lat="28.7650909" lon="104.5997934"><ele>355.56</ele><time>2025-12-23T23:52:59.000Z</time></trkpt>
        <trkpt lat="28.7651731" lon="104.5998461"><ele>357</ele><time>2025-12-23T23:53:05.000Z</time></trkpt>
        <trkpt lat="28.7652662" lon="104.5999072"><ele>358.38</ele><time>2025-12-23T23:53:13.000Z</time></trkpt>
        <trkpt lat="28.7653295" lon="104.5999873"><ele>359.81</ele><time>2025-12-23T23:53:23.000Z</time></trkpt>
        <trkpt lat="28.7653688" lon="104.6000807"><ele>360.88</ele><time>2025-12-23T23:53:31.000Z</time></trkpt>
        <trkpt lat="28.7654382" lon="104.600168"><ele>360.8</ele><time>2025-12-23T23:53:41.000Z</time></trkpt>
        <trkpt lat="28.765523" lon="104.6002605"><ele>361.45</ele><time>2025-12-23T23:53:51.000Z</time></trkpt>
        <trkpt lat="28.7655967" lon="104.6003371"><ele>362.03</ele><time>2025-12-23T23:53:59.000Z</time></trkpt>
        <trkpt lat="28.7656801" lon="104.6004137"><ele>362.83</ele><time>2025-12-23T23:54:09.000Z</time></trkpt>
        <trkpt lat="28.7657596" lon="104.6004909"><ele>364.28</ele><time>2025-12-23T23:54:17.000Z</time></trkpt>
        <trkpt lat="28.7658509" lon="104.6005386"><ele>365.62</ele><time>2025-12-23T23:54:27.000Z</time></trkpt>
        <trkpt lat="28.7659452" lon="104.6005668"><ele>366.73</ele><time>2025-12-23T23:54:35.000Z</time></trkpt>
        <trkpt lat="28.7660474" lon="104.6005947"><ele>367.66</ele><time>2025-12-23T23:54:45.000Z</time></trkpt>
        <trkpt lat="28.7661269" lon="104.600662"><ele>368.2</ele><time>2025-12-23T23:54:53.000Z</time></trkpt>
        <trkpt lat="28.7661661" lon="104.6006959"><ele>369.01</ele><time>2025-12-23T23:55:03.000Z</time></trkpt>
        <trkpt lat="28.7662253" lon="104.6007574"><ele>367.8</ele><time>2025-12-23T23:55:41.000Z</time></trkpt>
        <trkpt lat="28.7663094" lon="104.6007885"><ele>370.04</ele><time>2025-12-23T23:55:55.000Z</time></trkpt>
        <trkpt lat="28.7663429" lon="104.600879"><ele>370.84</ele><time>2025-12-23T23:56:05.000Z</time></trkpt>
        <trkpt lat="28.7663054" lon="104.6009936"><ele>370.78</ele><time>2025-12-23T23:56:13.000Z</time></trkpt>
        <trkpt lat="28.7662515" lon="104.6010516"><ele>370.4</ele><time>2025-12-23T23:56:17.000Z</time></trkpt>
        <trkpt lat="28.7661754" lon="104.6011264"><ele>370.19</ele><time>2025-12-23T23:56:25.000Z</time></trkpt>
        <trkpt lat="28.7661061" lon="104.6012052"><ele>370.19</ele><time>2025-12-23T23:56:31.000Z</time></trkpt>
        <trkpt lat="28.7660247" lon="104.6012917"><ele>370.58</ele><time>2025-12-23T23:56:39.000Z</time></trkpt>
        <trkpt lat="28.7659391" lon="104.6013532"><ele>370.42</ele><time>2025-12-23T23:56:45.000Z</time></trkpt>
        <trkpt lat="28.7659145" lon="104.6014626"><ele>369.21</ele><time>2025-12-23T23:56:53.000Z</time></trkpt>
        <trkpt lat="28.7659821" lon="104.6014804"><ele>367.87</ele><time>2025-12-23T23:56:59.000Z</time></trkpt>
        <trkpt lat="28.7660855" lon="104.6015416"><ele>366.85</ele><time>2025-12-23T23:57:05.000Z</time></trkpt>
        <trkpt lat="28.7661891" lon="104.6016012"><ele>366.66</ele><time>2025-12-23T23:57:13.000Z</time></trkpt>
        <trkpt lat="28.7662787" lon="104.6015473"><ele>366.89</ele><time>2025-12-23T23:57:19.000Z</time></trkpt>
        <trkpt lat="28.7663589" lon="104.6014657"><ele>367.41</ele><time>2025-12-23T23:57:25.000Z</time></trkpt>
        <trkpt lat="28.76644" lon="104.601375"><ele>368.05</ele><time>2025-12-23T23:57:31.000Z</time></trkpt>
        <trkpt lat="28.7665378" lon="104.601311"><ele>368.46</ele><time>2025-12-23T23:57:39.000Z</time></trkpt>
        <trkpt lat="28.7666104" lon="104.6012734"><ele>367.96</ele><time>2025-12-23T23:57:51.000Z</time></trkpt>
        <trkpt lat="28.7665602" lon="104.601302"><ele>364.28</ele><time>2025-12-23T23:58:05.000Z</time></trkpt>
        <trkpt lat="28.7666012" lon="104.6013122"><ele>361.1</ele><time>2025-12-23T23:58:45.000Z</time></trkpt>
        <trkpt lat="28.7666991" lon="104.6013099"><ele>363.34</ele><time>2025-12-23T23:58:55.000Z</time></trkpt>
        <trkpt lat="28.7668053" lon="104.6012906"><ele>361.04</ele><time>2025-12-23T23:59:03.000Z</time></trkpt>
        <trkpt lat="28.7669107" lon="104.601245"><ele>358.92</ele><time>2025-12-23T23:59:13.000Z</time></trkpt>
        <trkpt lat="28.7669935" lon="104.6011832"><ele>359.98</ele><time>2025-12-23T23:59:19.000Z</time></trkpt>
        <trkpt lat="28.7670679" lon="104.6011112"><ele>361.71</ele><time>2025-12-23T23:59:25.000Z</time></trkpt>
        <trkpt lat="28.7671061" lon="104.6010674"><ele>363.17</ele><time>2025-12-23T23:59:29.000Z</time></trkpt>
        <trkpt lat="28.7671381" lon="104.6009866"><ele>364</ele><time>2025-12-23T23:59:37.000Z</time></trkpt>
        <trkpt lat="28.7671651" lon="104.6008829"><ele>364.52</ele><time>2025-12-23T23:59:45.000Z</time></trkpt>
        <trkpt lat="28.767222" lon="104.6007649"><ele>365.28</ele><time>2025-12-23T23:59:53.000Z</time></trkpt>
        <trkpt lat="28.7672985" lon="104.6006576"><ele>366.71</ele><time>2025-12-24T00:00:03.000Z</time></trkpt>
        <trkpt lat="28.7673849" lon="104.6005711"><ele>368.34</ele><time>2025-12-24T00:00:09.000Z</time></trkpt>
        <trkpt lat="28.767492" lon="104.600519"><ele>368.93</ele><time>2025-12-24T00:00:17.000Z</time></trkpt>
        <trkpt lat="28.7675927" lon="104.6005236"><ele>368.7</ele><time>2025-12-24T00:00:24.000Z</time></trkpt>
        <trkpt lat="28.7676805" lon="104.6005679"><ele>368.83</ele><time>2025-12-24T00:00:34.000Z</time></trkpt>
        <trkpt lat="28.7677329" lon="104.6005985"><ele>369.07</ele><time>2025-12-24T00:00:40.000Z</time></trkpt>
        <trkpt lat="28.767789" lon="104.6006659"><ele>370.07</ele><time>2025-12-24T00:01:04.000Z</time></trkpt>
        <trkpt lat="28.767871" lon="104.6007377"><ele>366.52</ele><time>2025-12-24T00:01:12.000Z</time></trkpt>
        <trkpt lat="28.7679585" lon="104.6007956"><ele>363.67</ele><time>2025-12-24T00:01:20.000Z</time></trkpt>
        <trkpt lat="28.7680409" lon="104.6008492"><ele>361.57</ele><time>2025-12-24T00:01:26.000Z</time></trkpt>
        <trkpt lat="28.7681305" lon="104.6008747"><ele>360.55</ele><time>2025-12-24T00:01:32.000Z</time></trkpt>
        <trkpt lat="28.7682352" lon="104.6008802"><ele>360.32</ele><time>2025-12-24T00:01:42.000Z</time></trkpt>
        <trkpt lat="28.7683111" lon="104.6008924"><ele>360.27</ele><time>2025-12-24T00:01:50.000Z</time></trkpt>
        <trkpt lat="28.7683892" lon="104.6009303"><ele>359.85</ele><time>2025-12-24T00:02:18.000Z</time></trkpt>
        <trkpt lat="28.7684929" lon="104.6009307"><ele>358.28</ele><time>2025-12-24T00:02:36.000Z</time></trkpt>
        <trkpt lat="28.7685963" lon="104.6009026"><ele>355.92</ele><time>2025-12-24T00:02:46.000Z</time></trkpt>
        <trkpt lat="28.7686947" lon="104.6008931"><ele>354.28</ele><time>2025-12-24T00:02:56.000Z</time></trkpt>
        <trkpt lat="28.7688094" lon="104.6009178"><ele>351.66</ele><time>2025-12-24T00:03:04.000Z</time></trkpt>
        <trkpt lat="28.7689151" lon="104.6009589"><ele>349.01</ele><time>2025-12-24T00:03:12.000Z</time></trkpt>
        <trkpt lat="28.7690252" lon="104.6010044"><ele>347.16</ele><time>2025-12-24T00:03:20.000Z</time></trkpt>
        <trkpt lat="28.769122" lon="104.601042"><ele>346.32</ele><time>2025-12-24T00:03:28.000Z</time></trkpt>
        <trkpt lat="28.7692287" lon="104.6010719"><ele>346.35</ele><time>2025-12-24T00:03:36.000Z</time></trkpt>
        <trkpt lat="28.7693233" lon="104.6010649"><ele>347.45</ele><time>2025-12-24T00:03:46.000Z</time></trkpt>
        <trkpt lat="28.769412" lon="104.6010835"><ele>347.69</ele><time>2025-12-24T00:03:56.000Z</time></trkpt>
        <trkpt lat="28.7695004" lon="104.6010686"><ele>347.65</ele><time>2025-12-24T00:04:06.000Z</time></trkpt>
        <trkpt lat="28.769598" lon="104.6010601"><ele>350.34</ele><time>2025-12-24T00:04:16.000Z</time></trkpt>
        <trkpt lat="28.7696906" lon="104.601078"><ele>352.86</ele><time>2025-12-24T00:04:24.000Z</time></trkpt>
        <trkpt lat="28.7697785" lon="104.6011263"><ele>351.59</ele><time>2025-12-24T00:04:30.000Z</time></trkpt>
        <trkpt lat="28.7698636" lon="104.6011569"><ele>349.57</ele><time>2025-12-24T00:04:36.000Z</time></trkpt>
        <trkpt lat="28.7699642" lon="104.6011888"><ele>347.43</ele><time>2025-12-24T00:04:44.000Z</time></trkpt>
        <trkpt lat="28.7700633" lon="104.6012222"><ele>345.83</ele><time>2025-12-24T00:04:52.000Z</time></trkpt>
        <trkpt lat="28.7701637" lon="104.6012534"><ele>343.23</ele><time>2025-12-24T00:05:00.000Z</time></trkpt>
        <trkpt lat="28.770258" lon="104.6012461"><ele>340.81</ele><time>2025-12-24T00:05:06.000Z</time></trkpt>
        <trkpt lat="28.7703661" lon="104.6012323"><ele>338.83</ele><time>2025-12-24T00:05:16.000Z</time></trkpt>
        <trkpt lat="28.770467" lon="104.6012695"><ele>336.88</ele><time>2025-12-24T00:05:26.000Z</time></trkpt>
        <trkpt lat="28.7705471" lon="104.6013569"><ele>335.08</ele><time>2025-12-24T00:05:34.000Z</time></trkpt>
        <trkpt lat="28.7706321" lon="104.6014356"><ele>333.58</ele><time>2025-12-24T00:05:42.000Z</time></trkpt>
        <trkpt lat="28.7707289" lon="104.6014936"><ele>332.13</ele><time>2025-12-24T00:05:52.000Z</time></trkpt>
        <trkpt lat="28.7708203" lon="104.6015336"><ele>330.7</ele><time>2025-12-24T00:05:58.000Z</time></trkpt>
        <trkpt lat="28.7709281" lon="104.6015624"><ele>330.57</ele><time>2025-12-24T00:06:06.000Z</time></trkpt>
        <trkpt lat="28.7710168" lon="104.601602"><ele>331.31</ele><time>2025-12-24T00:06:12.000Z</time></trkpt>
        <trkpt lat="28.7711091" lon="104.601643"><ele>332.56</ele><time>2025-12-24T00:06:20.000Z</time></trkpt>
        <trkpt lat="28.7712094" lon="104.6016696"><ele>333.52</ele><time>2025-12-24T00:06:26.000Z</time></trkpt>
        <trkpt lat="28.7713103" lon="104.6017122"><ele>334.33</ele><time>2025-12-24T00:06:34.000Z</time></trkpt>
        <trkpt lat="28.771416" lon="104.6017701"><ele>335.48</ele><time>2025-12-24T00:06:42.000Z</time></trkpt>
        <trkpt lat="28.7715132" lon="104.6018294"><ele>337.04</ele><time>2025-12-24T00:06:50.000Z</time></trkpt>
        <trkpt lat="28.7716007" lon="104.6018793"><ele>338.05</ele><time>2025-12-24T00:06:58.000Z</time></trkpt>
        <trkpt lat="28.7716949" lon="104.6019127"><ele>338.42</ele><time>2025-12-24T00:07:06.000Z</time></trkpt>
        <trkpt lat="28.7717985" lon="104.6019502"><ele>338.02</ele><time>2025-12-24T00:07:14.000Z</time></trkpt>
        <trkpt lat="28.7718893" lon="104.6019989"><ele>337.67</ele><time>2025-12-24T00:07:20.000Z</time></trkpt>
        <trkpt lat="28.7719735" lon="104.6020746"><ele>337.64</ele><time>2025-12-24T00:07:28.000Z</time></trkpt>
        <trkpt lat="28.7720546" lon="104.6021484"><ele>337.45</ele><time>2025-12-24T00:07:36.000Z</time></trkpt>
        <trkpt lat="28.7721263" lon="104.6022349"><ele>336.53</ele><time>2025-12-24T00:07:44.000Z</time></trkpt>
        <trkpt lat="28.7722189" lon="104.6022813"><ele>334.88</ele><time>2025-12-24T00:07:52.000Z</time></trkpt>
        <trkpt lat="28.7722986" lon="104.6022957"><ele>332.69</ele><time>2025-12-24T00:08:04.000Z</time></trkpt>
        <trkpt lat="28.7723954" lon="104.6023201"><ele>330.98</ele><time>2025-12-24T00:08:12.000Z</time></trkpt>
        <trkpt lat="28.7724899" lon="104.6023544"><ele>330.08</ele><time>2025-12-24T00:08:24.000Z</time></trkpt>
        <trkpt lat="28.7725917" lon="104.6023694"><ele>330.26</ele><time>2025-12-24T00:08:32.000Z</time></trkpt>
        <trkpt lat="28.7726883" lon="104.6023672"><ele>330.67</ele><time>2025-12-24T00:08:38.000Z</time></trkpt>
        <trkpt lat="28.7727962" lon="104.6023874"><ele>330.98</ele><time>2025-12-24T00:08:44.000Z</time></trkpt>
        <trkpt lat="28.7728958" lon="104.6024083"><ele>331.16</ele><time>2025-12-24T00:08:50.000Z</time></trkpt>
        <trkpt lat="28.7730054" lon="104.6024266"><ele>331.95</ele><time>2025-12-24T00:08:58.000Z</time></trkpt>
        <trkpt lat="28.7731113" lon="104.6024487"><ele>333.74</ele><time>2025-12-24T00:09:06.000Z</time></trkpt>
        <trkpt lat="28.7732217" lon="104.6024785"><ele>335.79</ele><time>2025-12-24T00:09:14.000Z</time></trkpt>
        <trkpt lat="28.7733186" lon="104.6025045"><ele>337.99</ele><time>2025-12-24T00:09:20.000Z</time></trkpt>
        <trkpt lat="28.7734241" lon="104.60254"><ele>340.27</ele><time>2025-12-24T00:09:28.000Z</time></trkpt>
        <trkpt lat="28.773527" lon="104.60258"><ele>342.13</ele><time>2025-12-24T00:09:36.000Z</time></trkpt>
        <trkpt lat="28.7736151" lon="104.6026225"><ele>344.7</ele><time>2025-12-24T00:09:42.000Z</time></trkpt>
        <trkpt lat="28.7736978" lon="104.6026652"><ele>347.8</ele><time>2025-12-24T00:09:50.000Z</time></trkpt>
        <trkpt lat="28.7737757" lon="104.6027252"><ele>350.59</ele><time>2025-12-24T00:10:00.000Z</time></trkpt>
        <trkpt lat="28.7737886" lon="104.6027862"><ele>352.88</ele><time>2025-12-24T00:10:14.000Z</time></trkpt>
        <trkpt lat="28.7738474" lon="104.6028566"><ele>349.96</ele><time>2025-12-24T00:10:22.000Z</time></trkpt>
        <trkpt lat="28.7739268" lon="104.602926"><ele>346.45</ele><time>2025-12-24T00:10:30.000Z</time></trkpt>
        <trkpt lat="28.7740195" lon="104.6029866"><ele>343.42</ele><time>2025-12-24T00:10:40.000Z</time></trkpt>
        <trkpt lat="28.7740996" lon="104.60307"><ele>339.11</ele><time>2025-12-24T00:10:48.000Z</time></trkpt>
        <trkpt lat="28.7741584" lon="104.6031582"><ele>334.98</ele><time>2025-12-24T00:10:56.000Z</time></trkpt>
        <trkpt lat="28.7742133" lon="104.6032546"><ele>332.1</ele><time>2025-12-24T00:11:04.000Z</time></trkpt>
        <trkpt lat="28.7742452" lon="104.6033581"><ele>328.96</ele><time>2025-12-24T00:11:12.000Z</time></trkpt>
        <trkpt lat="28.7742696" lon="104.6034758"><ele>327.47</ele><time>2025-12-24T00:11:20.000Z</time></trkpt>
        <trkpt lat="28.7742779" lon="104.6036054"><ele>326.58</ele><time>2025-12-24T00:11:28.000Z</time></trkpt>
        <trkpt lat="28.7742941" lon="104.6037381"><ele>326.25</ele><time>2025-12-24T00:11:36.000Z</time></trkpt>
        <trkpt lat="28.7743186" lon="104.6038506"><ele>326.87</ele><time>2025-12-24T00:11:42.000Z</time></trkpt>
        <trkpt lat="28.7743076" lon="104.6039786"><ele>328.3</ele><time>2025-12-24T00:11:50.000Z</time></trkpt>
        <trkpt lat="28.774281" lon="104.6040892"><ele>330.32</ele><time>2025-12-24T00:11:58.000Z</time></trkpt>
        <trkpt lat="28.774283" lon="104.6042016"><ele>332.12</ele><time>2025-12-24T00:12:06.000Z</time></trkpt>
        <trkpt lat="28.7743111" lon="104.6043029"><ele>333.75</ele><time>2025-12-24T00:12:14.000Z</time></trkpt>
        <trkpt lat="28.7743419" lon="104.6044191"><ele>334.54</ele><time>2025-12-24T00:12:22.000Z</time></trkpt>
        <trkpt lat="28.7743781" lon="104.6045241"><ele>334.44</ele><time>2025-12-24T00:12:28.000Z</time></trkpt>
        <trkpt lat="28.7743977" lon="104.6046407"><ele>334.16</ele><time>2025-12-24T00:12:36.000Z</time></trkpt>
        <trkpt lat="28.7744442" lon="104.6047546"><ele>333.02</ele><time>2025-12-24T00:12:44.000Z</time></trkpt>
        <trkpt lat="28.7744697" lon="104.6048657"><ele>332.19</ele><time>2025-12-24T00:12:52.000Z</time></trkpt>
        <trkpt lat="28.7744825" lon="104.604987"><ele>331.25</ele><time>2025-12-24T00:13:00.000Z</time></trkpt>
        <trkpt lat="28.7744949" lon="104.6051046"><ele>330.41</ele><time>2025-12-24T00:13:08.000Z</time></trkpt>
        <trkpt lat="28.7744868" lon="104.6052329"><ele>330.41</ele><time>2025-12-24T00:13:16.000Z</time></trkpt>
        <trkpt lat="28.774468" lon="104.6053475"><ele>331.01</ele><time>2025-12-24T00:13:24.000Z</time></trkpt>
        <trkpt lat="28.7744242" lon="104.6054565"><ele>331.48</ele><time>2025-12-24T00:13:32.000Z</time></trkpt>
        <trkpt lat="28.7743688" lon="104.6055602"><ele>332.26</ele><time>2025-12-24T00:13:40.000Z</time></trkpt>
        <trkpt lat="28.7743" lon="104.6056661"><ele>332.88</ele><time>2025-12-24T00:13:48.000Z</time></trkpt>
        <trkpt lat="28.7742431" lon="104.605781"><ele>333.53</ele><time>2025-12-24T00:13:56.000Z</time></trkpt>
        <trkpt lat="28.7741984" lon="104.605883"><ele>334.21</ele><time>2025-12-24T00:14:02.000Z</time></trkpt>
        <trkpt lat="28.7741533" lon="104.6059812"><ele>334.85</ele><time>2025-12-24T00:14:10.000Z</time></trkpt>
        <trkpt lat="28.7741502" lon="104.6061048"><ele>335.04</ele><time>2025-12-24T00:14:18.000Z</time></trkpt>
        <trkpt lat="28.7741897" lon="104.6062181"><ele>334.98</ele><time>2025-12-24T00:14:26.000Z</time></trkpt>
        <trkpt lat="28.7742273" lon="104.6063277"><ele>335.2</ele><time>2025-12-24T00:14:34.000Z</time></trkpt>
        <trkpt lat="28.7742518" lon="104.6063634"><ele>335.5</ele><time>2025-12-24T00:14:48.000Z</time></trkpt>
        <trkpt lat="28.7743148" lon="104.6064073"><ele>335.63</ele><time>2025-12-24T00:15:10.000Z</time></trkpt>
        <trkpt lat="28.7743891" lon="104.6063531"><ele>336.44</ele><time>2025-12-24T00:15:18.000Z</time></trkpt>
        <trkpt lat="28.7744615" lon="104.606256"><ele>337.54</ele><time>2025-12-24T00:15:26.000Z</time></trkpt>
        <trkpt lat="28.7745126" lon="104.6061497"><ele>337.91</ele><time>2025-12-24T00:15:34.000Z</time></trkpt>
        <trkpt lat="28.7745626" lon="104.6060381"><ele>337.52</ele><time>2025-12-24T00:15:40.000Z</time></trkpt>
        <trkpt lat="28.7746004" lon="104.6059669"><ele>336.82</ele><time>2025-12-24T00:15:44.000Z</time></trkpt>
        <trkpt lat="28.7746893" lon="104.6059327"><ele>336.43</ele><time>2025-12-24T00:15:52.000Z</time></trkpt>
        <trkpt lat="28.7747953" lon="104.6059835"><ele>336.07</ele><time>2025-12-24T00:16:00.000Z</time></trkpt>
        <trkpt lat="28.7748851" lon="104.6060692"><ele>336.38</ele><time>2025-12-24T00:16:08.000Z</time></trkpt>
        <trkpt lat="28.7749768" lon="104.6061051"><ele>337.38</ele><time>2025-12-24T00:16:14.000Z</time></trkpt>
        <trkpt lat="28.7750265" lon="104.6061278"><ele>339.02</ele><time>2025-12-24T00:16:30.000Z</time></trkpt>
        <trkpt lat="28.7751043" lon="104.6061782"><ele>341.42</ele><time>2025-12-24T00:16:44.000Z</time></trkpt>
        <trkpt lat="28.7751395" lon="104.6062708"><ele>342.75</ele><time>2025-12-24T00:17:02.000Z</time></trkpt>
        <trkpt lat="28.7751963" lon="104.6063688"><ele>343.07</ele><time>2025-12-24T00:17:14.000Z</time></trkpt>
        <trkpt lat="28.7752406" lon="104.6064698"><ele>342.09</ele><time>2025-12-24T00:17:24.000Z</time></trkpt>
        <trkpt lat="28.7752002" lon="104.6065587"><ele>342.57</ele><time>2025-12-24T00:17:36.000Z</time></trkpt>
        <trkpt lat="28.7751219" lon="104.606622"><ele>344.91</ele><time>2025-12-24T00:17:46.000Z</time></trkpt>
        <trkpt lat="28.7751036" lon="104.6067223"><ele>347.66</ele><time>2025-12-24T00:18:02.000Z</time></trkpt>
        <trkpt lat="28.7750794" lon="104.6068351"><ele>350.3</ele><time>2025-12-24T00:18:14.000Z</time></trkpt>
        <trkpt lat="28.7750248" lon="104.6069362"><ele>353.01</ele><time>2025-12-24T00:18:24.000Z</time></trkpt>
        <trkpt lat="28.7749351" lon="104.6069928"><ele>355.59</ele><time>2025-12-24T00:18:36.000Z</time></trkpt>
        <trkpt lat="28.7748656" lon="104.6070869"><ele>359.51</ele><time>2025-12-24T00:18:44.000Z</time></trkpt>
        <trkpt lat="28.7748387" lon="104.6071947"><ele>362.6</ele><time>2025-12-24T00:18:52.000Z</time></trkpt>
        <trkpt lat="28.7748642" lon="104.6073041"><ele>365.53</ele><time>2025-12-24T00:19:16.000Z</time></trkpt>
        <trkpt lat="28.7748352" lon="104.6073979"><ele>367.84</ele><time>2025-12-24T00:19:26.000Z</time></trkpt>
        <trkpt lat="28.7747673" lon="104.6075003"><ele>368.72</ele><time>2025-12-24T00:19:36.000Z</time></trkpt>
        <trkpt lat="28.7747061" lon="104.6075964"><ele>369.88</ele><time>2025-12-24T00:19:44.000Z</time></trkpt>
        <trkpt lat="28.7746361" lon="104.6076912"><ele>370.62</ele><time>2025-12-24T00:19:52.000Z</time></trkpt>
        <trkpt lat="28.774569" lon="104.6077857"><ele>371.73</ele><time>2025-12-24T00:20:00.000Z</time></trkpt>
        <trkpt lat="28.7744901" lon="104.6078778"><ele>373.22</ele><time>2025-12-24T00:20:08.000Z</time></trkpt>
        <trkpt lat="28.7744286" lon="104.6079855"><ele>374.33</ele><time>2025-12-24T00:20:16.000Z</time></trkpt>
        <trkpt lat="28.7743881" lon="104.6080977"><ele>375.65</ele><time>2025-12-24T00:20:24.000Z</time></trkpt>
        <trkpt lat="28.7743397" lon="104.6082197"><ele>376.06</ele><time>2025-12-24T00:20:32.000Z</time></trkpt>
        <trkpt lat="28.7742908" lon="104.608332"><ele>374.7</ele><time>2025-12-24T00:20:40.000Z</time></trkpt>
        <trkpt lat="28.7742126" lon="104.6084375"><ele>372.68</ele><time>2025-12-24T00:20:48.000Z</time></trkpt>
        <trkpt lat="28.7741398" lon="104.6085267"><ele>372.09</ele><time>2025-12-24T00:20:56.000Z</time></trkpt>
        <trkpt lat="28.7741319" lon="104.6086367"><ele>371.92</ele><time>2025-12-24T00:21:04.000Z</time></trkpt>
        <trkpt lat="28.7741193" lon="104.6087503"><ele>372.26</ele><time>2025-12-24T00:21:14.000Z</time></trkpt>
        <trkpt lat="28.7741269" lon="104.6088786"><ele>372.27</ele><time>2025-12-24T00:21:24.000Z</time></trkpt>
        <trkpt lat="28.774114" lon="104.6089954"><ele>373.06</ele><time>2025-12-24T00:21:34.000Z</time></trkpt>
        <trkpt lat="28.774088" lon="104.6091157"><ele>372.3</ele><time>2025-12-24T00:21:42.000Z</time></trkpt>
        <trkpt lat="28.7740098" lon="104.6091222"><ele>370.37</ele><time>2025-12-24T00:21:56.000Z</time></trkpt>
        <trkpt lat="28.7739721" lon="104.6091307"><ele>369.91</ele><time>2025-12-24T00:22:00.000Z</time></trkpt>
        <trkpt lat="28.7739237" lon="104.609195"><ele>370.42</ele><time>2025-12-24T00:22:12.000Z</time></trkpt>
        <trkpt lat="28.7738596" lon="104.6092878"><ele>371.23</ele><time>2025-12-24T00:22:18.000Z</time></trkpt>
        <trkpt lat="28.7738339" lon="104.6094159"><ele>371.17</ele><time>2025-12-24T00:22:26.000Z</time></trkpt>
        <trkpt lat="28.7738359" lon="104.6095422"><ele>370.97</ele><time>2025-12-24T00:22:36.000Z</time></trkpt>
        <trkpt lat="28.7737975" lon="104.609642"><ele>372.49</ele><time>2025-12-24T00:22:42.000Z</time></trkpt>
        <trkpt lat="28.7737471" lon="104.6097444"><ele>374.6</ele><time>2025-12-24T00:22:50.000Z</time></trkpt>
        <trkpt lat="28.7737083" lon="104.6098509"><ele>375.85</ele><time>2025-12-24T00:22:58.000Z</time></trkpt>
        <trkpt lat="28.7736986" lon="104.6099766"><ele>376.86</ele><time>2025-12-24T00:23:06.000Z</time></trkpt>
        <trkpt lat="28.7736759" lon="104.6101016"><ele>376.83</ele><time>2025-12-24T00:23:16.000Z</time></trkpt>
        <trkpt lat="28.7736955" lon="104.610209"><ele>375.1</ele><time>2025-12-24T00:23:26.000Z</time></trkpt>
        <trkpt lat="28.7737606" lon="104.6103057"><ele>372.43</ele><time>2025-12-24T00:23:38.000Z</time></trkpt>
        <trkpt lat="28.7738587" lon="104.6103565"><ele>370.05</ele><time>2025-12-24T00:23:46.000Z</time></trkpt>
        <trkpt lat="28.7739488" lon="104.6104178"><ele>367.54</ele><time>2025-12-24T00:23:54.000Z</time></trkpt>
        <trkpt lat="28.7739545" lon="104.6104585"><ele>364.81</ele><time>2025-12-24T00:24:14.000Z</time></trkpt>
        <trkpt lat="28.7738903" lon="104.6105238"><ele>361.58</ele><time>2025-12-24T00:24:26.000Z</time></trkpt>
        <trkpt lat="28.7738669" lon="104.6106363"><ele>359.22</ele><time>2025-12-24T00:24:32.000Z</time></trkpt>
        <trkpt lat="28.7739281" lon="104.6107416"><ele>357.41</ele><time>2025-12-24T00:24:38.000Z</time></trkpt>
        <trkpt lat="28.7739998" lon="104.6108528"><ele>355.98</ele><time>2025-12-24T00:24:44.000Z</time></trkpt>
        <trkpt lat="28.7740399" lon="104.6108636"><ele>354.4</ele><time>2025-12-24T00:24:58.000Z</time></trkpt>
        <trkpt lat="28.7741081" lon="104.6107943"><ele>354.66</ele><time>2025-12-24T00:25:06.000Z</time></trkpt>
        <trkpt lat="28.774217" lon="104.6107745"><ele>357.21</ele><time>2025-12-24T00:25:16.000Z</time></trkpt>
        <trkpt lat="28.7743256" lon="104.6107837"><ele>356.43</ele><time>2025-12-24T00:25:22.000Z</time></trkpt>
        <trkpt lat="28.7744285" lon="104.6107782"><ele>353.11</ele><time>2025-12-24T00:25:28.000Z</time></trkpt>
        <trkpt lat="28.7745254" lon="104.610755"><ele>350.78</ele><time>2025-12-24T00:25:34.000Z</time></trkpt>
        <trkpt lat="28.774632" lon="104.6107669"><ele>349.93</ele><time>2025-12-24T00:25:42.000Z</time></trkpt>
        <trkpt lat="28.7747397" lon="104.6107815"><ele>349.66</ele><time>2025-12-24T00:25:50.000Z</time></trkpt>
        <trkpt lat="28.774836" lon="104.6107882"><ele>349.03</ele><time>2025-12-24T00:25:56.000Z</time></trkpt>
        <trkpt lat="28.7749329" lon="104.6107949"><ele>348.33</ele><time>2025-12-24T00:26:02.000Z</time></trkpt>
        <trkpt lat="28.7750242" lon="104.6107703"><ele>348.02</ele><time>2025-12-24T00:26:10.000Z</time></trkpt>
        <trkpt lat="28.7751324" lon="104.610748"><ele>348.61</ele><time>2025-12-24T00:26:16.000Z</time></trkpt>
        <trkpt lat="28.7752247" lon="104.6107684"><ele>349.25</ele><time>2025-12-24T00:26:24.000Z</time></trkpt>
        <trkpt lat="28.7753154" lon="104.6108164"><ele>350.43</ele><time>2025-12-24T00:26:30.000Z</time></trkpt>
        <trkpt lat="28.7753848" lon="104.6109076"><ele>351.15</ele><time>2025-12-24T00:26:36.000Z</time></trkpt>
        <trkpt lat="28.7754405" lon="104.6110058"><ele>351.47</ele><time>2025-12-24T00:26:42.000Z</time></trkpt>
        <trkpt lat="28.7754099" lon="104.6111053"><ele>350.28</ele><time>2025-12-24T00:26:48.000Z</time></trkpt>
        <trkpt lat="28.7753342" lon="104.6112068"><ele>347.71</ele><time>2025-12-24T00:26:56.000Z</time></trkpt>
        <trkpt lat="28.7752739" lon="104.6113064"><ele>343.23</ele><time>2025-12-24T00:27:02.000Z</time></trkpt>
        <trkpt lat="28.775197" lon="104.6114032"><ele>339.17</ele><time>2025-12-24T00:27:12.000Z</time></trkpt>
        <trkpt lat="28.7751461" lon="104.6114987"><ele>336.13</ele><time>2025-12-24T00:27:18.000Z</time></trkpt>
        <trkpt lat="28.7751204" lon="104.6115674"><ele>335.04</ele><time>2025-12-24T00:27:28.000Z</time></trkpt>
        <trkpt lat="28.7751876" lon="104.6116026"><ele>336.4</ele><time>2025-12-24T00:28:00.000Z</time></trkpt>
        <trkpt lat="28.7752807" lon="104.6116458"><ele>338.68</ele><time>2025-12-24T00:28:06.000Z</time></trkpt>
        <trkpt lat="28.77536" lon="104.6117133"><ele>340.19</ele><time>2025-12-24T00:28:12.000Z</time></trkpt>
        <trkpt lat="28.7753381" lon="104.6118108"><ele>341.27</ele><time>2025-12-24T00:28:20.000Z</time></trkpt>
        <trkpt lat="28.7752827" lon="104.6119208"><ele>341.93</ele><time>2025-12-24T00:28:28.000Z</time></trkpt>
        <trkpt lat="28.7752034" lon="104.6120009"><ele>341.57</ele><time>2025-12-24T00:28:34.000Z</time></trkpt>
        <trkpt lat="28.7751472" lon="104.6120932"><ele>341.46</ele><time>2025-12-24T00:28:42.000Z</time></trkpt>
        <trkpt lat="28.7751231" lon="104.6122057"><ele>341.78</ele><time>2025-12-24T00:28:48.000Z</time></trkpt>
        <trkpt lat="28.7751715" lon="104.6123027"><ele>342.65</ele><time>2025-12-24T00:28:54.000Z</time></trkpt>
        <trkpt lat="28.7752549" lon="104.6123741"><ele>343.96</ele><time>2025-12-24T00:29:02.000Z</time></trkpt>
        <trkpt lat="28.7753202" lon="104.6124575"><ele>345.91</ele><time>2025-12-24T00:29:08.000Z</time></trkpt>
        <trkpt lat="28.7753656" lon="104.6125581"><ele>347.93</ele><time>2025-12-24T00:29:16.000Z</time></trkpt>
        <trkpt lat="28.7753798" lon="104.612615"><ele>348.99</ele><time>2025-12-24T00:29:34.000Z</time></trkpt>
        <trkpt lat="28.7753831" lon="104.6127027"><ele>351.71</ele><time>2025-12-24T00:29:44.000Z</time></trkpt>
        <trkpt lat="28.7753128" lon="104.6127008"><ele>354.03</ele><time>2025-12-24T00:29:56.000Z</time></trkpt>
        <trkpt lat="28.7752073" lon="104.6126356"><ele>355.22</ele><time>2025-12-24T00:30:04.000Z</time></trkpt>
        <trkpt lat="28.7751176" lon="104.6125555"><ele>354.69</ele><time>2025-12-24T00:30:18.000Z</time></trkpt>
        <trkpt lat="28.7750808" lon="104.6126173"><ele>354.57</ele><time>2025-12-24T00:30:28.000Z</time></trkpt>
        <trkpt lat="28.7750623" lon="104.6127275"><ele>355.31</ele><time>2025-12-24T00:30:38.000Z</time></trkpt>
        <trkpt lat="28.7750734" lon="104.6128533"><ele>356.51</ele><time>2025-12-24T00:30:48.000Z</time></trkpt>
        <trkpt lat="28.7750833" lon="104.612973"><ele>356.85</ele><time>2025-12-24T00:30:56.000Z</time></trkpt>
        <trkpt lat="28.7751137" lon="104.613079"><ele>356.44</ele><time>2025-12-24T00:31:06.000Z</time></trkpt>
        <trkpt lat="28.7751766" lon="104.6131608"><ele>355.99</ele><time>2025-12-24T00:31:16.000Z</time></trkpt>
        <trkpt lat="28.7752057" lon="104.6131835"><ele>355.44</ele><time>2025-12-24T00:31:28.000Z</time></trkpt>
        <trkpt lat="28.775152" lon="104.6131308"><ele>354.73</ele><time>2025-12-24T00:31:34.000Z</time></trkpt>
        <trkpt lat="28.7750596" lon="104.6130744"><ele>354.16</ele><time>2025-12-24T00:31:42.000Z</time></trkpt>
        <trkpt lat="28.7749354" lon="104.6130442"><ele>352.5</ele><time>2025-12-24T00:31:50.000Z</time></trkpt>
        <trkpt lat="28.7748154" lon="104.6130057"><ele>350.56</ele><time>2025-12-24T00:32:02.000Z</time></trkpt>
        <trkpt lat="28.7746987" lon="104.6130173"><ele>348.13</ele><time>2025-12-24T00:32:12.000Z</time></trkpt>
        <trkpt lat="28.7746051" lon="104.6129664"><ele>345.49</ele><time>2025-12-24T00:32:20.000Z</time></trkpt>
        <trkpt lat="28.7745235" lon="104.6128802"><ele>342.91</ele><time>2025-12-24T00:32:28.000Z</time></trkpt>
        <trkpt lat="28.7744366" lon="104.612836"><ele>340.59</ele><time>2025-12-24T00:32:34.000Z</time></trkpt>
        <trkpt lat="28.7743668" lon="104.612765"><ele>339.17</ele><time>2025-12-24T00:32:44.000Z</time></trkpt>
        <trkpt lat="28.7743154" lon="104.6126762"><ele>338.5</ele><time>2025-12-24T00:32:50.000Z</time></trkpt>
        <trkpt lat="28.774286" lon="104.6126044"><ele>338.54</ele><time>2025-12-24T00:32:56.000Z</time></trkpt>
        <trkpt lat="28.7742116" lon="104.6125442"><ele>338.48</ele><time>2025-12-24T00:33:22.000Z</time></trkpt>
        <trkpt lat="28.7741001" lon="104.6124931"><ele>338.45</ele><time>2025-12-24T00:33:28.000Z</time></trkpt>
        <trkpt lat="28.7740013" lon="104.6124397"><ele>338.77</ele><time>2025-12-24T00:33:36.000Z</time></trkpt>
        <trkpt lat="28.7739138" lon="104.6123783"><ele>340.16</ele><time>2025-12-24T00:33:44.000Z</time></trkpt>
        <trkpt lat="28.7738135" lon="104.6123349"><ele>341.6</ele><time>2025-12-24T00:33:52.000Z</time></trkpt>
        <trkpt lat="28.7737197" lon="104.6123046"><ele>343.75</ele><time>2025-12-24T00:34:02.000Z</time></trkpt>
        <trkpt lat="28.7736314" lon="104.6122557"><ele>341.88</ele><time>2025-12-24T00:34:12.000Z</time></trkpt>
        <trkpt lat="28.77354" lon="104.6122252"><ele>339.13</ele><time>2025-12-24T00:34:20.000Z</time></trkpt>
        <trkpt lat="28.7734459" lon="104.612188"><ele>336.71</ele><time>2025-12-24T00:34:28.000Z</time></trkpt>
        <trkpt lat="28.7733596" lon="104.6121651"><ele>335.93</ele><time>2025-12-24T00:34:34.000Z</time></trkpt>
        <trkpt lat="28.773265" lon="104.6121686"><ele>335.14</ele><time>2025-12-24T00:34:40.000Z</time></trkpt>
        <trkpt lat="28.7731607" lon="104.6121936"><ele>334.48</ele><time>2025-12-24T00:34:48.000Z</time></trkpt>
        <trkpt lat="28.7730795" lon="104.612252"><ele>333.63</ele><time>2025-12-24T00:34:58.000Z</time></trkpt>
        <trkpt lat="28.7730012" lon="104.6122077"><ele>331.68</ele><time>2025-12-24T00:35:12.000Z</time></trkpt>
        <trkpt lat="28.772943" lon="104.6121243"><ele>332.03</ele><time>2025-12-24T00:35:18.000Z</time></trkpt>
        <trkpt lat="28.7728639" lon="104.6120869"><ele>334</ele><time>2025-12-24T00:35:24.000Z</time></trkpt>
        <trkpt lat="28.7727734" lon="104.6120468"><ele>336.62</ele><time>2025-12-24T00:35:34.000Z</time></trkpt>
        <trkpt lat="28.7726852" lon="104.6120042"><ele>339.15</ele><time>2025-12-24T00:35:46.000Z</time></trkpt>
        <trkpt lat="28.7726902" lon="104.6120046"><ele>340.59</ele><time>2025-12-24T00:35:56.000Z</time></trkpt>
        <trkpt lat="28.7726769" lon="104.6119369"><ele>340.16</ele><time>2025-12-24T00:36:08.000Z</time></trkpt>
        <trkpt lat="28.7726182" lon="104.6118734"><ele>339.66</ele><time>2025-12-24T00:36:18.000Z</time></trkpt>
        <trkpt lat="28.7725237" lon="104.6118552"><ele>338.82</ele><time>2025-12-24T00:36:36.000Z</time></trkpt>
        <trkpt lat="28.7724216" lon="104.6118522"><ele>334.17</ele><time>2025-12-24T00:36:54.000Z</time></trkpt>
        <trkpt lat="28.7723408" lon="104.6119093"><ele>328.55</ele><time>2025-12-24T00:37:04.000Z</time></trkpt>
        <trkpt lat="28.772311" lon="104.6120202"><ele>322.98</ele><time>2025-12-24T00:37:14.000Z</time></trkpt>
        <trkpt lat="28.7722896" lon="104.612144"><ele>317.48</ele><time>2025-12-24T00:37:26.000Z</time></trkpt>
        <trkpt lat="28.772231" lon="104.6122473"><ele>311.94</ele><time>2025-12-24T00:37:34.000Z</time></trkpt>
        <trkpt lat="28.7721642" lon="104.6123271"><ele>308.01</ele><time>2025-12-24T00:37:42.000Z</time></trkpt>
        <trkpt lat="28.7721631" lon="104.6123626"><ele>305.72</ele><time>2025-12-24T00:37:50.000Z</time></trkpt>
        <trkpt lat="28.7722194" lon="104.6124266"><ele>303.95</ele><time>2025-12-24T00:38:06.000Z</time></trkpt>
        <trkpt lat="28.7721647" lon="104.6124287"><ele>302.98</ele><time>2025-12-24T00:38:26.000Z</time></trkpt>
        <trkpt lat="28.7721135" lon="104.6124459"><ele>303.03</ele><time>2025-12-24T00:38:30.000Z</time></trkpt>
        <trkpt lat="28.7720258" lon="104.6125307"><ele>302.46</ele><time>2025-12-24T00:38:38.000Z</time></trkpt>
        <trkpt lat="28.7719415" lon="104.6126187"><ele>300.84</ele><time>2025-12-24T00:38:46.000Z</time></trkpt>
        <trkpt lat="28.7718651" lon="104.6127022"><ele>297.73</ele><time>2025-12-24T00:38:54.000Z</time></trkpt>
        <trkpt lat="28.7717678" lon="104.6127746"><ele>293.71</ele><time>2025-12-24T00:39:06.000Z</time></trkpt>
        <trkpt lat="28.7717008" lon="104.6128598"><ele>289.15</ele><time>2025-12-24T00:39:14.000Z</time></trkpt>
        <trkpt lat="28.7716612" lon="104.6129599"><ele>285.21</ele><time>2025-12-24T00:39:26.000Z</time></trkpt>
        <trkpt lat="28.7716118" lon="104.6130472"><ele>277.94</ele><time>2025-12-24T00:39:38.000Z</time></trkpt>
        <trkpt lat="28.7715355" lon="104.6131126"><ele>270.52</ele><time>2025-12-24T00:39:48.000Z</time></trkpt>
        <trkpt lat="28.7714927" lon="104.6132376"><ele>264.06</ele><time>2025-12-24T00:39:54.000Z</time></trkpt>
        <trkpt lat="28.7714897" lon="104.6133531"><ele>259.22</ele><time>2025-12-24T00:39:58.000Z</time></trkpt>
        <trkpt lat="28.7715212" lon="104.6134714"><ele>255.77</ele><time>2025-12-24T00:40:04.000Z</time></trkpt>
        <trkpt lat="28.7715087" lon="104.6135834"><ele>253.72</ele><time>2025-12-24T00:40:12.000Z</time></trkpt>
        <trkpt lat="28.7714617" lon="104.6136927"><ele>250.31</ele><time>2025-12-24T00:40:20.000Z</time></trkpt>
        <trkpt lat="28.7714153" lon="104.6138046"><ele>245.96</ele><time>2025-12-24T00:40:28.000Z</time></trkpt>
        <trkpt lat="28.7713887" lon="104.613909"><ele>242.97</ele><time>2025-12-24T00:40:40.000Z</time></trkpt>
        <trkpt lat="28.7713744" lon="104.6140355"><ele>242.55</ele><time>2025-12-24T00:40:56.000Z</time></trkpt>
        <trkpt lat="28.7713744" lon="104.6140355"><ele>242.55</ele><time>2025-12-24T00:41:05.000Z</time></trkpt>
      </trkseg>
  </trk>
</gpx>